PWSweather.com
Personal Weather Stations
Station Observations
CAPEBRETON
Mira Road, Sydney, NS

Mira RoadSydney, NS

Lat: 46.1207292, Lon: -60.1594642

Elevation: 175

Station Type: AcuRite Professional Weather Center

http://pwscapebreton.wix.com/weather-watcher

Latest ConditionsUpdated 11:49:48 AM GMT-04:56 Friday, Jul 29, 2016
Currently Today's Max Today's Min Today's Average
Temperature 80.4°F26.9°C 80.8°F27.1°C 61.5°F16.4°C 65.3°F18.5°C
Dew Point 63.2°F17.3°C 65.3°F18.5°C 59.7°F15.4°C 61.3°F16.3°C
Winds 2.2 mph E3.5 kmh E 7.8 mph NNE12.6 kmh NNE - 2.7 mph 4.3 kmh
Wind Gusts 3.7 mph6.0 kmh 7.8 mph12.6 kmh - -
Humidity 56% 95% 56% 87%
Pressure 29.89 in1012.2 mb 29.92 in1013.2 mb 29.89 in1012.2 mb -
Hour Temp Dew Point Humidity Winds Wind Gusts Pressure Precip Precip Rate Daily Precip Total
11:49 AM 80.4°F26.9°C 63.2°F17.3°C 56% 2.2 mph WNW3.5 kmh WNW 3.7 mph6.0 kmh 29.89 in1012.2 mb 0.00 in0.0 mm 0.00 in0.0 mm 0.00 in0.0 mm
11:48 AM 80.6°F27.0°C 63.4°F17.4°C 56% 2.7 mph NNE4.3 kmh NNE 4.2 mph6.8 kmh 29.89 in1012.2 mb 0.00 in0.0 mm 0.00 in0.0 mm 0.00 in0.0 mm
11:47 AM 80.8°F27.1°C 64.1°F17.8°C 57% 2.7 mph NE4.3 kmh NE 5.3 mph8.5 kmh 29.89 in1012.2 mb 0.00 in0.0 mm 0.00 in0.0 mm 0.00 in0.0 mm
11:46 AM 80.4°F26.9°C 63.7°F17.6°C 57% 3.7 mph ESE6.0 kmh ESE 5.3 mph8.5 kmh 29.89 in1012.2 mb 0.00 in0.0 mm 0.00 in0.0 mm 0.00 in0.0 mm
11:45 AM 80.6°F27.0°C 64.4°F18.0°C 58% 3.7 mph ESE6.0 kmh ESE 5.3 mph8.5 kmh 29.89 in1012.2 mb 0.00 in0.0 mm 0.00 in0.0 mm 0.00 in0.0 mm
11:44 AM 80.4°F26.9°C 64.2°F17.9°C 58% 1.7 mph NE2.7 kmh NE 6.8 mph10.9 kmh 29.89 in1012.2 mb 0.00 in0.0 mm 0.00 in0.0 mm 0.00 in0.0 mm
11:43 AM 80.1°F26.7°C 64.9°F18.3°C 60% 2.2 mph NNE3.5 kmh NNE 6.8 mph10.9 kmh 29.89 in1012.2 mb 0.00 in0.0 mm 0.00 in0.0 mm 0.00 in0.0 mm
11:42 AM 80.4°F26.9°C 64.7°F18.2°C 59% 2.7 mph WSW4.3 kmh WSW 6.8 mph10.9 kmh 29.89 in1012.2 mb 0.00 in0.0 mm 0.00 in0.0 mm 0.00 in0.0 mm
11:41 AM 79.9°F26.6°C 63.8°F17.7°C 58% 2.2 mph ENE3.5 kmh ENE 6.8 mph10.9 kmh 29.90 in1012.5 mb 0.00 in0.0 mm 0.00 in0.0 mm 0.00 in0.0 mm
11:40 AM 79.5°F26.4°C 64.4°F18.0°C 60% 3.2 mph W5.1 kmh W 6.8 mph10.9 kmh 29.90 in1012.5 mb 0.00 in0.0 mm 0.00 in0.0 mm 0.00 in0.0 mm
11:39 AM 79.2°F26.2°C 63.6°F17.6°C 59% 2.2 mph NE3.5 kmh NE 6.8 mph10.9 kmh 29.90 in1012.5 mb 0.00 in0.0 mm 0.00 in0.0 mm 0.00 in0.0 mm
11:38 AM 79.3°F26.3°C 64.2°F17.9°C 60% 4.2 mph SE6.8 kmh SE 6.8 mph10.9 kmh 29.90 in1012.5 mb 0.00 in0.0 mm 0.00 in0.0 mm 0.00 in0.0 mm
11:37 AM 79.3°F26.3°C 64.2°F17.9°C 60% 5.3 mph W8.5 kmh W 6.8 mph10.9 kmh 29.90 in1012.5 mb 0.00 in0.0 mm 0.00 in0.0 mm 0.00 in0.0 mm
11:36 AM 79.0°F26.1°C 63.9°F17.7°C 60% 2.2 mph ESE3.5 kmh ESE 6.8 mph10.9 kmh 29.90 in1012.5 mb 0.00 in0.0 mm 0.00 in0.0 mm 0.00 in0.0 mm
11:35 AM 79.0°F26.1°C 63.9°F17.7°C 60% 3.7 mph SW6.0 kmh SW 6.8 mph10.9 kmh 29.90 in1012.5 mb 0.00 in0.0 mm 0.00 in0.0 mm 0.00 in0.0 mm
11:34 AM 79.0°F26.1°C 63.9°F17.7°C 60% 6.8 mph NNW10.9 kmh NNW 6.8 mph10.9 kmh 29.90 in1012.5 mb 0.00 in0.0 mm 0.00 in0.0 mm 0.00 in0.0 mm
11:33 AM 78.3°F25.7°C 63.7°F17.6°C 61% 2.2 mph N3.5 kmh N 5.8 mph9.3 kmh 29.90 in1012.5 mb 0.00 in0.0 mm 0.00 in0.0 mm 0.00 in0.0 mm
11:32 AM 78.1°F25.6°C 63.5°F17.5°C 61% 4.7 mph W7.6 kmh W 5.8 mph9.3 kmh 29.90 in1012.5 mb 0.00 in0.0 mm 0.00 in0.0 mm 0.00 in0.0 mm
11:31 AM 78.1°F25.6°C 64.0°F17.8°C 62% 4.7 mph ESE7.6 kmh ESE 5.8 mph9.3 kmh 29.90 in1012.5 mb 0.00 in0.0 mm 0.00 in0.0 mm 0.00 in0.0 mm
11:30 AM 77.5°F25.3°C 63.4°F17.4°C 62% 2.7 mph NNW4.3 kmh NNW 6.3 mph10.1 kmh 29.90 in1012.5 mb 0.00 in0.0 mm 0.00 in0.0 mm 0.00 in0.0 mm
11:29 AM 77.7°F25.4°C 63.6°F17.6°C 62% 5.8 mph W9.3 kmh W 6.3 mph10.1 kmh 29.90 in1012.5 mb 0.00 in0.0 mm 0.00 in0.0 mm 0.00 in0.0 mm
11:28 AM 77.5°F25.3°C 64.3°F17.9°C 64% 2.2 mph W3.5 kmh W 6.3 mph10.1 kmh 29.90 in1012.5 mb 0.00 in0.0 mm 0.00 in0.0 mm 0.00 in0.0 mm
11:27 AM 77.4°F25.2°C 64.7°F18.2°C 65% 2.2 mph NE3.5 kmh NE 6.3 mph10.1 kmh 29.90 in1012.5 mb 0.00 in0.0 mm 0.00 in0.0 mm 0.00 in0.0 mm
11:26 AM 77.2°F25.1°C 64.1°F17.8°C 64% 2.2 mph NNE3.5 kmh NNE 6.3 mph10.1 kmh 29.90 in1012.5 mb 0.00 in0.0 mm 0.00 in0.0 mm 0.00 in0.0 mm
11:25 AM 77.0°F25.0°C 63.9°F17.7°C 64% 2.7 mph SSW4.3 kmh SSW 6.3 mph10.1 kmh 29.90 in1012.5 mb 0.00 in0.0 mm 0.00 in0.0 mm 0.00 in0.0 mm
11:24 AM 77.0°F25.0°C 63.9°F17.7°C 64% 4.2 mph WNW6.8 kmh WNW 6.3 mph10.1 kmh 29.90 in1012.5 mb 0.00 in0.0 mm 0.00 in0.0 mm 0.00 in0.0 mm
11:23 AM 76.5°F24.7°C 63.4°F17.4°C 64% 3.2 mph WSW5.1 kmh WSW 6.3 mph10.1 kmh 29.90 in1012.5 mb 0.00 in0.0 mm 0.00 in0.0 mm 0.00 in0.0 mm
11:22 AM 76.5°F24.7°C 63.4°F17.4°C 64% 1.7 mph N2.7 kmh N 6.3 mph10.1 kmh 29.90 in1012.5 mb 0.00 in0.0 mm 0.00 in0.0 mm 0.00 in0.0 mm
11:21 AM 76.1°F24.5°C 63.5°F17.5°C 65% 4.2 mph SSW6.8 kmh SSW 6.3 mph10.1 kmh 29.90 in1012.5 mb 0.00 in0.0 mm 0.00 in0.0 mm 0.00 in0.0 mm
11:20 AM 76.5°F24.7°C 63.8°F17.7°C 65% 2.7 mph NE4.3 kmh NE 5.3 mph8.5 kmh 29.90 in1012.5 mb 0.00 in0.0 mm 0.00 in0.0 mm 0.00 in0.0 mm
11:19 AM 76.3°F24.6°C 64.1°F17.8°C 66% 2.7 mph ESE4.3 kmh ESE 5.3 mph8.5 kmh 29.90 in1012.5 mb 0.00 in0.0 mm 0.00 in0.0 mm 0.00 in0.0 mm
11:18 AM 75.9°F24.4°C 63.7°F17.6°C 66% 1.7 mph W2.7 kmh W 5.3 mph8.5 kmh 29.90 in1012.5 mb 0.00 in0.0 mm 0.00 in0.0 mm 0.00 in0.0 mm
11:17 AM 75.9°F24.4°C 63.3°F17.4°C 65% 2.7 mph SSW4.3 kmh SSW 5.3 mph8.5 kmh 29.90 in1012.5 mb 0.00 in0.0 mm 0.00 in0.0 mm 0.00 in0.0 mm
11:16 AM 76.5°F24.7°C 64.3°F17.9°C 66% 4.2 mph W6.8 kmh W 4.7 mph7.6 kmh 29.90 in1012.5 mb 0.00 in0.0 mm 0.00 in0.0 mm 0.00 in0.0 mm
11:15 AM 76.1°F24.5°C 63.9°F17.7°C 66% 2.2 mph WSW3.5 kmh WSW 4.7 mph7.6 kmh 29.90 in1012.5 mb 0.00 in0.0 mm 0.00 in0.0 mm 0.00 in0.0 mm
11:14 AM 75.9°F24.4°C 64.1°F17.8°C 67% 4.7 mph W7.6 kmh W 4.7 mph7.6 kmh 29.90 in1012.5 mb 0.00 in0.0 mm 0.00 in0.0 mm 0.00 in0.0 mm
11:13 AM 75.4°F24.1°C 64.9°F18.3°C 70% 3.7 mph S6.0 kmh S 4.2 mph6.8 kmh 29.90 in1012.5 mb 0.00 in0.0 mm 0.00 in0.0 mm 0.00 in0.0 mm
11:12 AM 75.4°F24.1°C 65.3°F18.5°C 71% 1.1 mph WNW1.8 kmh WNW 3.7 mph6.0 kmh 29.90 in1012.5 mb 0.00 in0.0 mm 0.00 in0.0 mm 0.00 in0.0 mm
11:11 AM 74.7°F23.7°C 64.7°F18.2°C 71% 1.7 mph WNW2.7 kmh WNW 3.7 mph6.0 kmh 29.90 in1012.5 mb 0.00 in0.0 mm 0.00 in0.0 mm 0.00 in0.0 mm
11:10 AM 74.3°F23.5°C 64.3°F17.9°C 71% 2.2 mph SSE3.5 kmh SSE 5.8 mph9.3 kmh 29.90 in1012.5 mb 0.00 in0.0 mm 0.00 in0.0 mm 0.00 in0.0 mm
11:09 AM 74.1°F23.4°C 63.7°F17.6°C 70% 3.2 mph WSW5.1 kmh WSW 5.8 mph9.3 kmh 29.90 in1012.5 mb 0.00 in0.0 mm 0.00 in0.0 mm 0.00 in0.0 mm
11:08 AM 74.1°F23.4°C 63.7°F17.6°C 70% 3.2 mph WSW5.1 kmh WSW 5.8 mph9.3 kmh 29.90 in1012.5 mb 0.00 in0.0 mm 0.00 in0.0 mm 0.00 in0.0 mm
11:07 AM 73.9°F23.3°C 63.5°F17.5°C 70% 3.2 mph SSE5.1 kmh SSE 5.8 mph9.3 kmh 29.90 in1012.5 mb 0.00 in0.0 mm 0.00 in0.0 mm 0.00 in0.0 mm
11:06 AM 74.1°F23.4°C 63.7°F17.6°C 70% 3.2 mph W5.1 kmh W 5.8 mph9.3 kmh 29.90 in1012.5 mb 0.00 in0.0 mm 0.00 in0.0 mm 0.00 in0.0 mm
11:05 AM 73.9°F23.3°C 63.5°F17.5°C 70% 1.7 mph NE2.7 kmh NE 5.8 mph9.3 kmh 29.90 in1012.5 mb 0.00 in0.0 mm 0.00 in0.0 mm 0.00 in0.0 mm
11:04 AM 73.9°F23.3°C 63.5°F17.5°C 70% 2.2 mph ESE3.5 kmh ESE 6.8 mph10.9 kmh 29.90 in1012.5 mb 0.00 in0.0 mm 0.00 in0.0 mm 0.00 in0.0 mm
11:03 AM 73.9°F23.3°C 63.5°F17.5°C 70% 2.2 mph SSE3.5 kmh SSE 6.8 mph10.9 kmh 29.90 in1012.5 mb 0.00 in0.0 mm 0.00 in0.0 mm 0.00 in0.0 mm
11:02 AM 74.1°F23.4°C 63.7°F17.6°C 70% 1.7 mph E2.7 kmh E 6.8 mph10.9 kmh 29.90 in1012.5 mb 0.00 in0.0 mm 0.00 in0.0 mm 0.00 in0.0 mm
11:01 AM 73.9°F23.3°C 63.5°F17.5°C 70% 2.7 mph W4.3 kmh W 6.8 mph10.9 kmh 29.90 in1012.5 mb 0.00 in0.0 mm 0.00 in0.0 mm 0.00 in0.0 mm
11:00 AM 73.9°F23.3°C 63.9°F17.7°C 71% 4.7 mph SSW7.6 kmh SSW 6.8 mph10.9 kmh 29.90 in1012.5 mb 0.00 in0.0 mm 0.00 in0.0 mm 0.00 in0.0 mm
10:59 AM 73.9°F23.3°C 63.5°F17.5°C 70% 2.7 mph ESE4.3 kmh ESE 6.8 mph10.9 kmh 29.90 in1012.5 mb 0.00 in0.0 mm 0.00 in0.0 mm 0.00 in0.0 mm
10:58 AM 73.6°F23.1°C 63.2°F17.3°C 70% 1.7 mph WNW2.7 kmh WNW 6.8 mph10.9 kmh 29.90 in1012.5 mb 0.00 in0.0 mm 0.00 in0.0 mm 0.00 in0.0 mm
10:57 AM 73.4°F23.0°C 63.0°F17.2°C 70% 2.2 mph SW3.5 kmh SW 6.8 mph10.9 kmh 29.90 in1012.5 mb 0.00 in0.0 mm 0.00 in0.0 mm 0.00 in0.0 mm
10:56 AM 73.4°F23.0°C 63.8°F17.7°C 72% 2.7 mph NW4.3 kmh NW 6.8 mph10.9 kmh 29.90 in1012.5 mb 0.00 in0.0 mm 0.00 in0.0 mm 0.00 in0.0 mm
10:55 AM 73.4°F23.0°C 63.4°F17.4°C 71% 1.7 mph NW2.7 kmh NW 6.8 mph10.9 kmh 29.90 in1012.5 mb 0.00 in0.0 mm 0.00 in0.0 mm 0.00 in0.0 mm
10:54 AM 73.4°F23.0°C 63.4°F17.4°C 71% 6.8 mph W10.9 kmh W 6.8 mph10.9 kmh 29.90 in1012.5 mb 0.00 in0.0 mm 0.00 in0.0 mm 0.00 in0.0 mm
10:53 AM 73.6°F23.1°C 64.4°F18.0°C 73% 3.7 mph W6.0 kmh W 4.7 mph7.6 kmh 29.90 in1012.5 mb 0.00 in0.0 mm 0.00 in0.0 mm 0.00 in0.0 mm
10:52 AM 73.6°F23.1°C 64.8°F18.2°C 74% 2.7 mph W4.3 kmh W 4.7 mph7.6 kmh 29.90 in1012.5 mb 0.00 in0.0 mm 0.00 in0.0 mm 0.00 in0.0 mm
10:51 AM 73.4°F23.0°C 64.6°F18.1°C 74% 2.7 mph WSW4.3 kmh WSW 4.7 mph7.6 kmh 29.90 in1012.5 mb 0.00 in0.0 mm 0.00 in0.0 mm 0.00 in0.0 mm
10:50 AM 73.0°F22.8°C 64.2°F17.9°C 74% 1.1 mph W1.8 kmh W 4.7 mph7.6 kmh 29.90 in1012.5 mb 0.00 in0.0 mm 0.00 in0.0 mm 0.00 in0.0 mm
10:49 AM 72.9°F22.7°C 64.1°F17.8°C 74% 1.7 mph W2.7 kmh W 4.7 mph7.6 kmh 29.90 in1012.5 mb 0.00 in0.0 mm 0.00 in0.0 mm 0.00 in0.0 mm
10:48 AM 72.5°F22.5°C 64.1°F17.8°C 75% 2.7 mph NNW4.3 kmh NNW 4.7 mph7.6 kmh 29.90 in1012.5 mb 0.00 in0.0 mm 0.00 in0.0 mm 0.00 in0.0 mm
10:47 AM 72.3°F22.4°C 63.9°F17.7°C 75% 1.7 mph ENE2.7 kmh ENE 4.7 mph7.6 kmh 29.90 in1012.5 mb 0.00 in0.0 mm 0.00 in0.0 mm 0.00 in0.0 mm
10:46 AM 72.3°F22.4°C 64.3°F17.9°C 76% 1.7 mph WSW2.7 kmh WSW 4.2 mph6.8 kmh 29.90 in1012.5 mb 0.00 in0.0 mm 0.00 in0.0 mm 0.00 in0.0 mm
10:45 AM 72.3°F22.4°C 63.9°F17.7°C 75% 1.7 mph SE2.7 kmh SE 4.2 mph6.8 kmh 29.90 in1012.5 mb 0.00 in0.0 mm 0.00 in0.0 mm 0.00 in0.0 mm
10:44 AM 72.3°F22.4°C 63.9°F17.7°C 75% 3.2 mph S5.1 kmh S 4.2 mph6.8 kmh 29.90 in1012.5 mb 0.00 in0.0 mm 0.00 in0.0 mm 0.00 in0.0 mm
10:43 AM 72.0°F22.2°C 64.0°F17.8°C 76% 1.7 mph NNW2.7 kmh NNW 4.2 mph6.8 kmh 29.90 in1012.5 mb 0.00 in0.0 mm 0.00 in0.0 mm 0.00 in0.0 mm
10:42 AM 71.8°F22.1°C 63.8°F17.7°C 76% 1.7 mph E2.7 kmh E 4.2 mph6.8 kmh 29.90 in1012.5 mb 0.00 in0.0 mm 0.00 in0.0 mm 0.00 in0.0 mm
10:41 AM 71.8°F22.1°C 63.8°F17.7°C 76% 1.7 mph S2.7 kmh S 4.2 mph6.8 kmh 29.91 in1012.9 mb 0.00 in0.0 mm 0.00 in0.0 mm 0.00 in0.0 mm
10:40 AM 71.8°F22.1°C 63.4°F17.4°C 75% 2.7 mph NNW4.3 kmh NNW 5.3 mph8.5 kmh 29.91 in1012.9 mb 0.00 in0.0 mm 0.00 in0.0 mm 0.00 in0.0 mm
10:39 AM 72.0°F22.2°C 63.6°F17.6°C 75% 4.2 mph NNW6.8 kmh NNW 5.3 mph8.5 kmh 29.91 in1012.9 mb 0.00 in0.0 mm 0.00 in0.0 mm 0.00 in0.0 mm
10:38 AM 72.1°F22.3°C 64.1°F17.8°C 76% 2.7 mph S4.3 kmh S 5.3 mph8.5 kmh 29.91 in1012.9 mb 0.00 in0.0 mm 0.00 in0.0 mm 0.00 in0.0 mm
10:37 AM 72.1°F22.3°C 64.1°F17.8°C 76% 1.7 mph W2.7 kmh W 5.3 mph8.5 kmh 29.91 in1012.9 mb 0.00 in0.0 mm 0.00 in0.0 mm 0.00 in0.0 mm
10:36 AM 72.0°F22.2°C 64.0°F17.8°C 76% 1.7 mph SSE2.7 kmh SSE 5.3 mph8.5 kmh 29.91 in1012.9 mb 0.00 in0.0 mm 0.00 in0.0 mm 0.00 in0.0 mm
10:35 AM 71.8°F22.1°C 64.2°F17.9°C 77% 3.2 mph WSW5.1 kmh WSW 5.3 mph8.5 kmh 29.91 in1012.9 mb 0.00 in0.0 mm 0.00 in0.0 mm 0.00 in0.0 mm
10:34 AM 71.8°F22.1°C 64.2°F17.9°C 77% 1.7 mph SW2.7 kmh SW 5.3 mph8.5 kmh 29.91 in1012.9 mb 0.00 in0.0 mm 0.00 in0.0 mm 0.00 in0.0 mm
10:33 AM 71.6°F22.0°C 64.0°F17.8°C 77% Calm Calm 5.3 mph8.5 kmh 29.91 in1012.9 mb 0.00 in0.0 mm 0.00 in0.0 mm 0.00 in0.0 mm
10:32 AM 71.4°F21.9°C 63.8°F17.7°C 77% 1.1 mph S1.8 kmh S 5.3 mph8.5 kmh 29.91 in1012.9 mb 0.00 in0.0 mm 0.00 in0.0 mm 0.00 in0.0 mm
10:31 AM 71.2°F21.8°C 63.6°F17.6°C 77% 2.2 mph WSW3.5 kmh WSW 5.3 mph8.5 kmh 29.91 in1012.9 mb 0.00 in0.0 mm 0.00 in0.0 mm 0.00 in0.0 mm
10:30 AM 71.2°F21.8°C 64.0°F17.8°C 78% 5.3 mph WNW8.5 kmh WNW 5.3 mph8.5 kmh 29.91 in1012.9 mb 0.00 in0.0 mm 0.00 in0.0 mm 0.00 in0.0 mm
10:29 AM 71.2°F21.8°C 64.0°F17.8°C 78% 3.2 mph SSW5.1 kmh SSW 5.3 mph8.5 kmh 29.91 in1012.9 mb 0.00 in0.0 mm 0.00 in0.0 mm 0.00 in0.0 mm
10:28 AM 71.2°F21.8°C 64.3°F17.9°C 79% Calm Calm 5.3 mph8.5 kmh 29.91 in1012.9 mb 0.00 in0.0 mm 0.00 in0.0 mm 0.00 in0.0 mm
10:27 AM 71.1°F21.7°C 64.2°F17.9°C 79% 1.1 mph W1.8 kmh W 5.3 mph8.5 kmh 29.91 in1012.9 mb 0.00 in0.0 mm 0.00 in0.0 mm 0.00 in0.0 mm
10:26 AM 70.9°F21.6°C 63.7°F17.6°C 78% 2.7 mph W4.3 kmh W 5.3 mph8.5 kmh 29.91 in1012.9 mb 0.00 in0.0 mm 0.00 in0.0 mm 0.00 in0.0 mm
10:25 AM 70.9°F21.6°C 63.7°F17.6°C 78% 3.2 mph NW5.1 kmh NW 5.3 mph8.5 kmh 29.91 in1012.9 mb 0.00 in0.0 mm 0.00 in0.0 mm 0.00 in0.0 mm
10:24 AM 70.9°F21.6°C 63.7°F17.6°C 78% 2.7 mph W4.3 kmh W 5.3 mph8.5 kmh 29.91 in1012.9 mb 0.00 in0.0 mm 0.00 in0.0 mm 0.00 in0.0 mm
10:23 AM 70.7°F21.5°C 63.5°F17.5°C 78% 1.7 mph ESE2.7 kmh ESE 5.3 mph8.5 kmh 29.91 in1012.9 mb 0.00 in0.0 mm 0.00 in0.0 mm 0.00 in0.0 mm
10:22 AM 70.7°F21.5°C 63.5°F17.5°C 78% 3.2 mph W5.1 kmh W 4.7 mph7.6 kmh 29.91 in1012.9 mb 0.00 in0.0 mm 0.00 in0.0 mm 0.00 in0.0 mm
10:21 AM 70.7°F21.5°C 63.9°F17.7°C 79% 1.1 mph W1.8 kmh W 4.7 mph7.6 kmh 29.91 in1012.9 mb 0.00 in0.0 mm 0.00 in0.0 mm 0.00 in0.0 mm
10:20 AM 70.5°F21.4°C 63.7°F17.6°C 79% 1.7 mph NE2.7 kmh NE 4.7 mph7.6 kmh 29.91 in1012.9 mb 0.00 in0.0 mm 0.00 in0.0 mm 0.00 in0.0 mm
10:19 AM 70.5°F21.4°C 63.7°F17.6°C 79% 3.2 mph SSW5.1 kmh SSW 4.7 mph7.6 kmh 29.91 in1012.9 mb 0.00 in0.0 mm 0.00 in0.0 mm 0.00 in0.0 mm
10:18 AM 70.7°F21.5°C 63.9°F17.7°C 79% 3.7 mph SSW6.0 kmh SSW 4.7 mph7.6 kmh 29.91 in1012.9 mb 0.00 in0.0 mm 0.00 in0.0 mm 0.00 in0.0 mm
10:17 AM 70.7°F21.5°C 64.2°F17.9°C 80% 1.7 mph WNW2.7 kmh WNW 4.7 mph7.6 kmh 29.91 in1012.9 mb 0.00 in0.0 mm 0.00 in0.0 mm 0.00 in0.0 mm
10:16 AM 70.2°F21.2°C 63.7°F17.6°C 80% 1.7 mph WNW2.7 kmh WNW 4.7 mph7.6 kmh 29.91 in1012.9 mb 0.00 in0.0 mm 0.00 in0.0 mm 0.00 in0.0 mm
10:15 AM 70.0°F21.1°C 63.2°F17.3°C 79% 2.2 mph WNW3.5 kmh WNW 4.7 mph7.6 kmh 29.91 in1012.9 mb 0.00 in0.0 mm 0.00 in0.0 mm 0.00 in0.0 mm
10:14 AM 70.0°F21.1°C 63.2°F17.3°C 79% 3.2 mph W5.1 kmh W 4.7 mph7.6 kmh 29.91 in1012.9 mb 0.00 in0.0 mm 0.00 in0.0 mm 0.00 in0.0 mm
10:13 AM 70.0°F21.1°C 63.2°F17.3°C 79% 2.7 mph SW4.3 kmh SW 4.7 mph7.6 kmh 29.91 in1012.9 mb 0.00 in0.0 mm 0.00 in0.0 mm 0.00 in0.0 mm
10:12 AM 70.0°F21.1°C 63.2°F17.3°C 79% 2.7 mph WSW4.3 kmh WSW 4.7 mph7.6 kmh 29.91 in1012.9 mb 0.00 in0.0 mm 0.00 in0.0 mm 0.00 in0.0 mm
10:11 AM 70.2°F21.2°C 63.4°F17.4°C 79% 1.7 mph W2.7 kmh W 4.2 mph6.8 kmh 29.91 in1012.9 mb 0.00 in0.0 mm 0.00 in0.0 mm 0.00 in0.0 mm
10:10 AM 70.3°F21.3°C 63.8°F17.7°C 80% 1.1 mph W1.8 kmh W 4.2 mph6.8 kmh 29.91 in1012.9 mb 0.00 in0.0 mm 0.00 in0.0 mm 0.00 in0.0 mm
10:09 AM 70.2°F21.2°C 63.7°F17.6°C 80% 2.2 mph WNW3.5 kmh WNW 6.3 mph10.1 kmh 29.91 in1012.9 mb 0.00 in0.0 mm 0.00 in0.0 mm 0.00 in0.0 mm
10:08 AM 70.2°F21.2°C 63.7°F17.6°C 80% 2.7 mph W4.3 kmh W 6.3 mph10.1 kmh 29.91 in1012.9 mb 0.00 in0.0 mm 0.00 in0.0 mm 0.00 in0.0 mm
10:07 AM 70.0°F21.1°C 63.5°F17.5°C 80% 1.7 mph SE2.7 kmh SE 6.3 mph10.1 kmh 29.91 in1012.9 mb 0.00 in0.0 mm 0.00 in0.0 mm 0.00 in0.0 mm
10:06 AM 70.0°F21.1°C 63.5°F17.5°C 80% 1.7 mph WNW2.7 kmh WNW 6.3 mph10.1 kmh 29.91 in1012.9 mb 0.00 in0.0 mm 0.00 in0.0 mm 0.00 in0.0 mm
10:05 AM 69.6°F20.9°C 63.1°F17.3°C 80% 1.7 mph W2.7 kmh W 6.3 mph10.1 kmh 29.91 in1012.9 mb 0.00 in0.0 mm 0.00 in0.0 mm 0.00 in0.0 mm
10:04 AM 69.6°F20.9°C 63.1°F17.3°C 80% 4.2 mph S6.8 kmh S 6.3 mph10.1 kmh 29.91 in1012.9 mb 0.00 in0.0 mm 0.00 in0.0 mm 0.00 in0.0 mm
10:03 AM 69.4°F20.8°C 63.0°F17.2°C 80% 2.7 mph ESE4.3 kmh ESE 6.3 mph10.1 kmh 29.91 in1012.9 mb 0.00 in0.0 mm 0.00 in0.0 mm 0.00 in0.0 mm
10:02 AM 69.6°F20.9°C 63.1°F17.3°C 80% 2.7 mph SSE4.3 kmh SSE 6.3 mph10.1 kmh 29.91 in1012.9 mb 0.00 in0.0 mm 0.00 in0.0 mm 0.00 in0.0 mm
10:01 AM 69.4°F20.8°C 63.0°F17.2°C 80% 2.7 mph W4.3 kmh W 6.3 mph10.1 kmh 29.91 in1012.9 mb 0.00 in0.0 mm 0.00 in0.0 mm 0.00 in0.0 mm
10:00 AM 69.4°F20.8°C 63.3°F17.4°C 81% 3.7 mph W6.0 kmh W 6.3 mph10.1 kmh 29.91 in1012.9 mb 0.00 in0.0 mm 0.00 in0.0 mm 0.00 in0.0 mm
09:59 AM 69.4°F20.8°C 63.3°F17.4°C 81% 6.3 mph WSW10.1 kmh WSW 6.3 mph10.1 kmh 29.91 in1012.9 mb 0.00 in0.0 mm 0.00 in0.0 mm 0.00 in0.0 mm
09:58 AM 69.4°F20.8°C 63.0°F17.2°C 80% 1.7 mph SSW2.7 kmh SSW 5.8 mph9.3 kmh 29.91 in1012.9 mb 0.00 in0.0 mm 0.00 in0.0 mm 0.00 in0.0 mm
09:57 AM 69.6°F20.9°C 63.1°F17.3°C 80% 2.7 mph W4.3 kmh W 5.8 mph9.3 kmh 29.91 in1012.9 mb 0.00 in0.0 mm 0.00 in0.0 mm 0.00 in0.0 mm
09:56 AM 69.6°F20.9°C 63.9°F17.7°C 82% 1.1 mph SW1.8 kmh SW 5.8 mph9.3 kmh 29.91 in1012.9 mb 0.00 in0.0 mm 0.00 in0.0 mm 0.00 in0.0 mm
09:55 AM 69.3°F20.7°C 63.2°F17.3°C 81% 2.7 mph SW4.3 kmh SW 5.8 mph9.3 kmh 29.91 in1012.9 mb 0.00 in0.0 mm 0.00 in0.0 mm 0.00 in0.0 mm
09:54 AM 69.3°F20.7°C 63.2°F17.3°C 81% 1.7 mph W2.7 kmh W 5.8 mph9.3 kmh 29.91 in1012.9 mb 0.00 in0.0 mm 0.00 in0.0 mm 0.00 in0.0 mm
09:53 AM 69.1°F20.6°C 63.0°F17.2°C 81% 1.7 mph SW2.7 kmh SW 5.8 mph9.3 kmh 29.91 in1012.9 mb 0.00 in0.0 mm 0.00 in0.0 mm 0.00 in0.0 mm
09:52 AM 69.1°F20.6°C 63.0°F17.2°C 81% 1.7 mph SW2.7 kmh SW 5.8 mph9.3 kmh 29.91 in1012.9 mb 0.00 in0.0 mm 0.00 in0.0 mm 0.00 in0.0 mm
09:51 AM 69.3°F20.7°C 62.9°F17.2°C 80% 2.2 mph WSW3.5 kmh WSW 5.8 mph9.3 kmh 29.91 in1012.9 mb 0.00 in0.0 mm 0.00 in0.0 mm 0.00 in0.0 mm
09:50 AM 69.3°F20.7°C 62.9°F17.2°C 80% 3.2 mph W5.1 kmh W 5.8 mph9.3 kmh 29.91 in1012.9 mb 0.00 in0.0 mm 0.00 in0.0 mm 0.00 in0.0 mm
09:49 AM 69.4°F20.8°C 63.0°F17.2°C 80% 2.2 mph ENE3.5 kmh ENE 4.2 mph6.8 kmh 29.91 in1012.9 mb 0.00 in0.0 mm 0.00 in0.0 mm 0.00 in0.0 mm
09:48 AM 69.4°F20.8°C 63.3°F17.4°C 81% 1.7 mph WNW2.7 kmh WNW 3.7 mph6.0 kmh 29.91 in1012.9 mb 0.00 in0.0 mm 0.00 in0.0 mm 0.00 in0.0 mm
09:47 AM 69.3°F20.7°C 63.2°F17.3°C 81% 1.1 mph WNW1.8 kmh WNW 5.3 mph8.5 kmh 29.91 in1012.9 mb 0.00 in0.0 mm 0.00 in0.0 mm 0.00 in0.0 mm
09:46 AM 69.3°F20.7°C 63.2°F17.3°C 81% 3.2 mph WNW5.1 kmh WNW 5.3 mph8.5 kmh 29.91 in1012.9 mb 0.00 in0.0 mm 0.00 in0.0 mm 0.00 in0.0 mm
09:45 AM 69.3°F20.7°C 63.2°F17.3°C 81% Calm Calm 5.3 mph8.5 kmh 29.91 in1012.9 mb 0.00 in0.0 mm 0.00 in0.0 mm 0.00 in0.0 mm
09:44 AM 69.1°F20.6°C 62.7°F17.1°C 80% 1.1 mph SSW1.8 kmh SSW 5.3 mph8.5 kmh 29.91 in1012.9 mb 0.00 in0.0 mm 0.00 in0.0 mm 0.00 in0.0 mm
09:43 AM 69.1°F20.6°C 62.7°F17.1°C 80% 2.7 mph SW4.3 kmh SW 5.3 mph8.5 kmh 29.91 in1012.9 mb 0.00 in0.0 mm 0.00 in0.0 mm 0.00 in0.0 mm
09:42 AM 69.1°F20.6°C 63.0°F17.2°C 81% 3.7 mph W6.0 kmh W 5.3 mph8.5 kmh 29.91 in1012.9 mb 0.00 in0.0 mm 0.00 in0.0 mm 0.00 in0.0 mm
09:41 AM 68.9°F20.5°C 62.8°F17.1°C 81% 1.7 mph W2.7 kmh W 5.3 mph8.5 kmh 29.91 in1012.9 mb 0.00 in0.0 mm 0.00 in0.0 mm 0.00 in0.0 mm
09:40 AM 68.9°F20.5°C 62.8°F17.1°C 81% 2.2 mph W3.5 kmh W 5.3 mph8.5 kmh 29.91 in1012.9 mb 0.00 in0.0 mm 0.00 in0.0 mm 0.00 in0.0 mm
09:39 AM 68.9°F20.5°C 62.8°F17.1°C 81% 3.2 mph W5.1 kmh W 5.3 mph8.5 kmh 29.91 in1012.9 mb 0.00 in0.0 mm 0.00 in0.0 mm 0.00 in0.0 mm
09:38 AM 68.9°F20.5°C 62.8°F17.1°C 81% 2.7 mph ESE4.3 kmh ESE 5.3 mph8.5 kmh 29.91 in1012.9 mb 0.00 in0.0 mm 0.00 in0.0 mm 0.00 in0.0 mm
09:37 AM 68.9°F20.5°C 62.8°F17.1°C 81% 1.1 mph SE1.8 kmh SE 4.7 mph7.6 kmh 29.91 in1012.9 mb 0.00 in0.0 mm 0.00 in0.0 mm 0.00 in0.0 mm
09:36 AM 68.7°F20.4°C 62.6°F17.0°C 81% 1.7 mph W2.7 kmh W 4.7 mph7.6 kmh 29.91 in1012.9 mb 0.00 in0.0 mm 0.00 in0.0 mm 0.00 in0.0 mm
09:35 AM 68.7°F20.4°C 62.6°F17.0°C 81% 4.2 mph SW6.8 kmh SW 4.7 mph7.6 kmh 29.91 in1012.9 mb 0.00 in0.0 mm 0.00 in0.0 mm 0.00 in0.0 mm
09:34 AM 68.7°F20.4°C 62.6°F17.0°C 81% 3.7 mph W6.0 kmh W 5.8 mph9.3 kmh 29.91 in1012.9 mb 0.00 in0.0 mm 0.00 in0.0 mm 0.00 in0.0 mm
09:33 AM 68.9°F20.5°C 62.8°F17.1°C 81% 2.2 mph NE3.5 kmh NE 5.8 mph9.3 kmh 29.91 in1012.9 mb 0.00 in0.0 mm 0.00 in0.0 mm 0.00 in0.0 mm
09:32 AM 69.1°F20.6°C 62.7°F17.1°C 80% 2.2 mph ENE3.5 kmh ENE 5.8 mph9.3 kmh 29.91 in1012.9 mb 0.00 in0.0 mm 0.00 in0.0 mm 0.00 in0.0 mm
09:31 AM 69.4°F20.8°C 62.6°F17.0°C 79% 4.2 mph W6.8 kmh W 5.8 mph9.3 kmh 29.91 in1012.9 mb 0.00 in0.0 mm 0.00 in0.0 mm 0.00 in0.0 mm
09:30 AM 69.4°F20.8°C 62.6°F17.0°C 79% 3.7 mph SW6.0 kmh SW 5.8 mph9.3 kmh 29.91 in1012.9 mb 0.00 in0.0 mm 0.00 in0.0 mm 0.00 in0.0 mm
09:29 AM 69.4°F20.8°C 62.6°F17.0°C 79% 3.7 mph NNW6.0 kmh NNW 5.8 mph9.3 kmh 29.91 in1012.9 mb 0.00 in0.0 mm 0.00 in0.0 mm 0.00 in0.0 mm
09:28 AM 69.4°F20.8°C 62.6°F17.0°C 79% 3.2 mph SW5.1 kmh SW 5.8 mph9.3 kmh 29.91 in1012.9 mb 0.00 in0.0 mm 0.00 in0.0 mm 0.00 in0.0 mm
09:27 AM 69.4°F20.8°C 62.6°F17.0°C 79% 2.7 mph WSW4.3 kmh WSW 5.8 mph9.3 kmh 29.91 in1012.9 mb 0.00 in0.0 mm 0.00 in0.0 mm 0.00 in0.0 mm
09:26 AM 69.6°F20.9°C 62.8°F17.1°C 79% 3.7 mph SSW6.0 kmh SSW 5.8 mph9.3 kmh 29.91 in1012.9 mb 0.00 in0.0 mm 0.00 in0.0 mm 0.00 in0.0 mm
09:25 AM 69.6°F20.9°C 62.8°F17.1°C 79% 5.8 mph WSW9.3 kmh WSW 5.8 mph9.3 kmh 29.91 in1012.9 mb 0.00 in0.0 mm 0.00 in0.0 mm 0.00 in0.0 mm
09:24 AM 69.6°F20.9°C 63.1°F17.3°C 80% 3.2 mph SSW5.1 kmh SSW 5.3 mph8.5 kmh 29.91 in1012.9 mb 0.00 in0.0 mm 0.00 in0.0 mm 0.00 in0.0 mm
09:23 AM 69.4°F20.8°C 63.0°F17.2°C 80% 2.7 mph SW4.3 kmh SW 5.3 mph8.5 kmh 29.91 in1012.9 mb 0.00 in0.0 mm 0.00 in0.0 mm 0.00 in0.0 mm
09:22 AM 69.4°F20.8°C 63.0°F17.2°C 80% 3.7 mph SW6.0 kmh SW 5.3 mph8.5 kmh 29.91 in1012.9 mb 0.00 in0.0 mm 0.00 in0.0 mm 0.00 in0.0 mm
09:21 AM 69.4°F20.8°C 63.0°F17.2°C 80% 2.7 mph WSW4.3 kmh WSW 5.3 mph8.5 kmh 29.91 in1012.9 mb 0.00 in0.0 mm 0.00 in0.0 mm 0.00 in0.0 mm
09:20 AM 69.3°F20.7°C 62.9°F17.2°C 80% 2.2 mph ESE3.5 kmh ESE 4.7 mph7.6 kmh 29.91 in1012.9 mb 0.00 in0.0 mm 0.00 in0.0 mm 0.00 in0.0 mm
09:19 AM 69.3°F20.7°C 62.9°F17.2°C 80% 3.2 mph W5.1 kmh W 4.7 mph7.6 kmh 29.91 in1012.9 mb 0.00 in0.0 mm 0.00 in0.0 mm 0.00 in0.0 mm
09:18 AM 68.9°F20.5°C 62.5°F16.9°C 80% 2.2 mph N3.5 kmh N 4.7 mph7.6 kmh 29.91 in1012.9 mb 0.00 in0.0 mm 0.00 in0.0 mm 0.00 in0.0 mm
09:17 AM 68.9°F20.5°C 62.5°F16.9°C 80% 1.7 mph SSW2.7 kmh SSW 4.7 mph7.6 kmh 29.91 in1012.9 mb 0.00 in0.0 mm 0.00 in0.0 mm 0.00 in0.0 mm
09:16 AM 68.9°F20.5°C 62.5°F16.9°C 80% 4.7 mph WSW7.6 kmh WSW 4.7 mph7.6 kmh 29.91 in1012.9 mb 0.00 in0.0 mm 0.00 in0.0 mm 0.00 in0.0 mm
09:15 AM 68.9°F20.5°C 62.5°F16.9°C 80% 3.2 mph W5.1 kmh W 4.7 mph7.6 kmh 29.91 in1012.9 mb 0.00 in0.0 mm 0.00 in0.0 mm 0.00 in0.0 mm
09:14 AM 68.9°F20.5°C 62.5°F16.9°C 80% 4.2 mph SE6.8 kmh SE 4.7 mph7.6 kmh 29.91 in1012.9 mb 0.00 in0.0 mm 0.00 in0.0 mm 0.00 in0.0 mm
09:13 AM 68.9°F20.5°C 62.5°F16.9°C 80% 2.7 mph N4.3 kmh N 4.7 mph7.6 kmh 29.91 in1012.9 mb 0.00 in0.0 mm 0.00 in0.0 mm 0.00 in0.0 mm
09:12 AM 68.9°F20.5°C 62.5°F16.9°C 80% 1.7 mph SW2.7 kmh SW 4.7 mph7.6 kmh 29.91 in1012.9 mb 0.00 in0.0 mm 0.00 in0.0 mm 0.00 in0.0 mm
09:11 AM 68.9°F20.5°C 62.5°F16.9°C 80% 3.2 mph WSW5.1 kmh WSW 4.7 mph7.6 kmh 29.91 in1012.9 mb 0.00 in0.0 mm 0.00 in0.0 mm 0.00 in0.0 mm
09:10 AM 68.9°F20.5°C 62.5°F16.9°C 80% 2.7 mph ENE4.3 kmh ENE 4.7 mph7.6 kmh 29.91 in1012.9 mb 0.00 in0.0 mm 0.00 in0.0 mm 0.00 in0.0 mm
09:09 AM 68.9°F20.5°C 62.5°F16.9°C 80% 4.7 mph NW7.6 kmh NW 4.7 mph7.6 kmh 29.91 in1012.9 mb 0.00 in0.0 mm 0.00 in0.0 mm 0.00 in0.0 mm
09:08 AM 68.9°F20.5°C 62.5°F16.9°C 80% 2.2 mph ESE3.5 kmh ESE 4.7 mph7.6 kmh 29.91 in1012.9 mb 0.00 in0.0 mm 0.00 in0.0 mm 0.00 in0.0 mm
09:07 AM 68.9°F20.5°C 62.5°F16.9°C 80% 1.7 mph N2.7 kmh N 4.7 mph7.6 kmh 29.91 in1012.9 mb 0.00 in0.0 mm 0.00 in0.0 mm 0.00 in0.0 mm
09:06 AM 68.9°F20.5°C 62.5°F16.9°C 80% 2.7 mph SSE4.3 kmh SSE 4.7 mph7.6 kmh 29.91 in1012.9 mb 0.00 in0.0 mm 0.00 in0.0 mm 0.00 in0.0 mm
09:05 AM 68.9°F20.5°C 62.5°F16.9°C 80% 1.1 mph SSW1.8 kmh SSW 4.7 mph7.6 kmh 29.91 in1012.9 mb 0.00 in0.0 mm 0.00 in0.0 mm 0.00 in0.0 mm
09:04 AM 68.9°F20.5°C 62.5°F16.9°C 80% 3.7 mph WSW6.0 kmh WSW 4.7 mph7.6 kmh 29.91 in1012.9 mb 0.00 in0.0 mm 0.00 in0.0 mm 0.00 in0.0 mm
09:03 AM 68.9°F20.5°C 62.5°F16.9°C 80% 1.7 mph S2.7 kmh S 4.7 mph7.6 kmh 29.91 in1012.9 mb 0.00 in0.0 mm 0.00 in0.0 mm 0.00 in0.0 mm
09:02 AM 68.9°F20.5°C 62.5°F16.9°C 80% 1.1 mph WNW1.8 kmh WNW 4.7 mph7.6 kmh 29.91 in1012.9 mb 0.00 in0.0 mm 0.00 in0.0 mm 0.00 in0.0 mm
09:01 AM 68.9°F20.5°C 62.5°F16.9°C 80% 3.2 mph W5.1 kmh W 4.7 mph7.6 kmh 29.91 in1012.9 mb 0.00 in0.0 mm 0.00 in0.0 mm 0.00 in0.0 mm
09:00 AM 69.1°F20.6°C 62.7°F17.1°C 80% 3.7 mph WSW6.0 kmh WSW 4.2 mph6.8 kmh 29.91 in1012.9 mb 0.00 in0.0 mm 0.00 in0.0 mm 0.00 in0.0 mm
08:59 AM 69.1°F20.6°C 62.7°F17.1°C 80% 3.2 mph W5.1 kmh W 4.2 mph6.8 kmh 29.91 in1012.9 mb 0.00 in0.0 mm 0.00 in0.0 mm 0.00 in0.0 mm
08:58 AM 69.1°F20.6°C 62.7°F17.1°C 80% 2.7 mph W4.3 kmh W 4.2 mph6.8 kmh 29.91 in1012.9 mb 0.00 in0.0 mm 0.00 in0.0 mm 0.00 in0.0 mm
08:57 AM 69.1°F20.6°C 62.7°F17.1°C 80% 1.7 mph WSW2.7 kmh WSW 4.2 mph6.8 kmh 29.91 in1012.9 mb 0.00 in0.0 mm 0.00 in0.0 mm 0.00 in0.0 mm
08:56 AM 69.1°F20.6°C 62.7°F17.1°C 80% 2.7 mph W4.3 kmh W 4.2 mph6.8 kmh 29.91 in1012.9 mb 0.00 in0.0 mm 0.00 in0.0 mm 0.00 in0.0 mm
08:55 AM 68.9°F20.5°C 62.5°F16.9°C 80% 2.2 mph W3.5 kmh W 4.2 mph6.8 kmh 29.91 in1012.9 mb 0.00 in0.0 mm 0.00 in0.0 mm 0.00 in0.0 mm
08:54 AM 68.9°F20.5°C 62.5°F16.9°C 80% 2.7 mph WSW4.3 kmh WSW 4.2 mph6.8 kmh 29.91 in1012.9 mb 0.00 in0.0 mm 0.00 in0.0 mm 0.00 in0.0 mm
08:53 AM 68.9°F20.5°C 62.5°F16.9°C 80% 2.2 mph W3.5 kmh W 4.2 mph6.8 kmh 29.91 in1012.9 mb 0.00 in0.0 mm 0.00 in0.0 mm 0.00 in0.0 mm
08:52 AM 68.7°F20.4°C 62.3°F16.8°C 80% 2.7 mph W4.3 kmh W 4.2 mph6.8 kmh 29.91 in1012.9 mb 0.00 in0.0 mm 0.00 in0.0 mm 0.00 in0.0 mm
08:51 AM 68.7°F20.4°C 62.6°F17.0°C 81% 4.2 mph W6.8 kmh W 4.2 mph6.8 kmh 29.91 in1012.9 mb 0.00 in0.0 mm 0.00 in0.0 mm 0.00 in0.0 mm
08:50 AM 68.5°F20.3°C 62.4°F16.9°C 81% 3.7 mph W6.0 kmh W 4.2 mph6.8 kmh 29.91 in1012.9 mb 0.00 in0.0 mm 0.00 in0.0 mm 0.00 in0.0 mm
08:49 AM 68.5°F20.3°C 62.4°F16.9°C 81% 3.7 mph NE6.0 kmh NE 4.2 mph6.8 kmh 29.91 in1012.9 mb 0.00 in0.0 mm 0.00 in0.0 mm 0.00 in0.0 mm
08:48 AM 68.5°F20.3°C 62.4°F16.9°C 81% 2.7 mph SW4.3 kmh SW 4.2 mph6.8 kmh 29.91 in1012.9 mb 0.00 in0.0 mm 0.00 in0.0 mm 0.00 in0.0 mm
08:47 AM 68.5°F20.3°C 62.4°F16.9°C 81% 4.2 mph NE6.8 kmh NE 4.2 mph6.8 kmh 29.91 in1012.9 mb 0.00 in0.0 mm 0.00 in0.0 mm 0.00 in0.0 mm
08:46 AM 68.5°F20.3°C 62.4°F16.9°C 81% 2.2 mph NW3.5 kmh NW 4.7 mph7.6 kmh 29.91 in1012.9 mb 0.00 in0.0 mm 0.00 in0.0 mm 0.00 in0.0 mm
08:45 AM 68.5°F20.3°C 62.4°F16.9°C 81% 1.7 mph W2.7 kmh W 4.7 mph7.6 kmh 29.91 in1012.9 mb 0.00 in0.0 mm 0.00 in0.0 mm 0.00 in0.0 mm
08:44 AM 68.5°F20.3°C 62.4°F16.9°C 81% 2.7 mph WNW4.3 kmh WNW 4.7 mph7.6 kmh 29.91 in1012.9 mb 0.00 in0.0 mm 0.00 in0.0 mm 0.00 in0.0 mm
08:43 AM 68.5°F20.3°C 62.4°F16.9°C 81% 3.2 mph W5.1 kmh W 4.7 mph7.6 kmh 29.91 in1012.9 mb 0.00 in0.0 mm 0.00 in0.0 mm 0.00 in0.0 mm
08:42 AM 68.5°F20.3°C 62.1°F16.7°C 80% 1.7 mph NNE2.7 kmh NNE 4.7 mph7.6 kmh 29.91 in1012.9 mb 0.00 in0.0 mm 0.00 in0.0 mm 0.00 in0.0 mm
08:41 AM 68.7°F20.4°C 62.3°F16.8°C 80% 2.7 mph W4.3 kmh W 4.7 mph7.6 kmh 29.92 in1013.2 mb 0.00 in0.0 mm 0.00 in0.0 mm 0.00 in0.0 mm
08:40 AM 68.9°F20.5°C 62.5°F16.9°C 80% 1.7 mph E2.7 kmh E 4.7 mph7.6 kmh 29.92 in1013.2 mb 0.00 in0.0 mm 0.00 in0.0 mm 0.00 in0.0 mm
08:39 AM 68.9°F20.5°C 62.5°F16.9°C 80% 1.7 mph ESE2.7 kmh ESE 4.7 mph7.6 kmh 29.92 in1013.2 mb 0.00 in0.0 mm 0.00 in0.0 mm 0.00 in0.0 mm
08:38 AM 68.9°F20.5°C 62.5°F16.9°C 80% 1.7 mph W2.7 kmh W 4.7 mph7.6 kmh 29.92 in1013.2 mb 0.00 in0.0 mm 0.00 in0.0 mm 0.00 in0.0 mm
08:37 AM 69.1°F20.6°C 62.7°F17.1°C 80% 2.2 mph SSW3.5 kmh SSW 4.7 mph7.6 kmh 29.92 in1013.2 mb 0.00 in0.0 mm 0.00 in0.0 mm 0.00 in0.0 mm
08:36 AM 69.3°F20.7°C 62.9°F17.2°C 80% 2.2 mph W3.5 kmh W 4.2 mph6.8 kmh 29.92 in1013.2 mb 0.00 in0.0 mm 0.00 in0.0 mm 0.00 in0.0 mm
08:35 AM 69.1°F20.6°C 62.7°F17.1°C 80% 3.2 mph WSW5.1 kmh WSW 4.2 mph6.8 kmh 29.92 in1013.2 mb 0.00 in0.0 mm 0.00 in0.0 mm 0.00 in0.0 mm
08:34 AM 68.7°F20.4°C 62.6°F17.0°C 81% 1.7 mph SW2.7 kmh SW 4.2 mph6.8 kmh 29.92 in1013.2 mb 0.00 in0.0 mm 0.00 in0.0 mm 0.00 in0.0 mm
08:33 AM 68.4°F20.2°C 62.3°F16.8°C 81% 2.7 mph WSW4.3 kmh WSW 4.2 mph6.8 kmh 29.92 in1013.2 mb 0.00 in0.0 mm 0.00 in0.0 mm 0.00 in0.0 mm
08:32 AM 68.0°F20.0°C 61.9°F16.6°C 81% 1.1 mph NNE1.8 kmh NNE 4.2 mph6.8 kmh 29.92 in1013.2 mb 0.00 in0.0 mm 0.00 in0.0 mm 0.00 in0.0 mm
08:31 AM 68.0°F20.0°C 61.9°F16.6°C 81% 2.7 mph S4.3 kmh S 4.2 mph6.8 kmh 29.92 in1013.2 mb 0.00 in0.0 mm 0.00 in0.0 mm 0.00 in0.0 mm
08:30 AM 68.0°F20.0°C 61.9°F16.6°C 81% 3.2 mph WSW5.1 kmh WSW 4.2 mph6.8 kmh 29.92 in1013.2 mb 0.00 in0.0 mm 0.00 in0.0 mm 0.00 in0.0 mm
08:29 AM 68.0°F20.0°C 61.9°F16.6°C 81% 2.7 mph W4.3 kmh W 4.2 mph6.8 kmh 29.92 in1013.2 mb 0.00 in0.0 mm 0.00 in0.0 mm 0.00 in0.0 mm
08:28 AM 68.2°F20.1°C 62.1°F16.7°C 81% 3.2 mph WSW5.1 kmh WSW 4.2 mph6.8 kmh 29.92 in1013.2 mb 0.00 in0.0 mm 0.00 in0.0 mm 0.00 in0.0 mm
08:27 AM 68.2°F20.1°C 62.5°F16.9°C 82% Calm Calm 4.2 mph6.8 kmh 29.92 in1013.2 mb 0.00 in0.0 mm 0.00 in0.0 mm 0.00 in0.0 mm
08:26 AM 68.2°F20.1°C 62.5°F16.9°C 82% 2.2 mph SW3.5 kmh SW 6.8 mph10.9 kmh 29.92 in1013.2 mb 0.00 in0.0 mm 0.00 in0.0 mm 0.00 in0.0 mm
08:25 AM 68.0°F20.0°C 62.3°F16.8°C 82% 2.2 mph SSW3.5 kmh SSW 6.8 mph10.9 kmh 29.92 in1013.2 mb 0.00 in0.0 mm 0.00 in0.0 mm 0.00 in0.0 mm
08:24 AM 67.8°F19.9°C 61.7°F16.5°C 81% 2.2 mph NW3.5 kmh NW 6.8 mph10.9 kmh 29.92 in1013.2 mb 0.00 in0.0 mm 0.00 in0.0 mm 0.00 in0.0 mm
08:23 AM 68.0°F20.0°C 61.9°F16.6°C 81% 2.2 mph WSW3.5 kmh WSW 6.8 mph10.9 kmh 29.92 in1013.2 mb 0.00 in0.0 mm 0.00 in0.0 mm 0.00 in0.0 mm
08:22 AM 68.5°F20.3°C 62.4°F16.9°C 81% 3.2 mph WSW5.1 kmh WSW 6.8 mph10.9 kmh 29.92 in1013.2 mb 0.00 in0.0 mm 0.00 in0.0 mm 0.00 in0.0 mm
08:21 AM 68.5°F20.3°C 62.4°F16.9°C 81% 3.7 mph W6.0 kmh W 6.8 mph10.9 kmh 29.92 in1013.2 mb 0.00 in0.0 mm 0.00 in0.0 mm 0.00 in0.0 mm
08:20 AM 68.4°F20.2°C 62.3°F16.8°C 81% 1.1 mph W1.8 kmh W 6.8 mph10.9 kmh 29.92 in1013.2 mb 0.00 in0.0 mm 0.00 in0.0 mm 0.00 in0.0 mm
08:19 AM 68.2°F20.1°C 62.1°F16.7°C 81% 1.7 mph N2.7 kmh N 6.8 mph10.9 kmh 29.92 in1013.2 mb 0.00 in0.0 mm 0.00 in0.0 mm 0.00 in0.0 mm
08:18 AM 68.0°F20.0°C 61.9°F16.6°C 81% 1.7 mph W2.7 kmh W 6.8 mph10.9 kmh 29.92 in1013.2 mb 0.00 in0.0 mm 0.00 in0.0 mm 0.00 in0.0 mm
08:17 AM 67.8°F19.9°C 62.1°F16.7°C 82% 1.1 mph WSW1.8 kmh WSW 6.8 mph10.9 kmh 29.92 in1013.2 mb 0.00 in0.0 mm 0.00 in0.0 mm 0.00 in0.0 mm
08:16 AM 67.8°F19.9°C 62.1°F16.7°C 82% 6.8 mph W10.9 kmh W 6.8 mph10.9 kmh 29.92 in1013.2 mb 0.00 in0.0 mm 0.00 in0.0 mm 0.00 in0.0 mm
08:15 AM 67.6°F19.8°C 61.9°F16.6°C 82% 3.7 mph W6.0 kmh W 4.7 mph7.6 kmh 29.92 in1013.2 mb 0.00 in0.0 mm 0.00 in0.0 mm 0.00 in0.0 mm
08:14 AM 67.6°F19.8°C 61.9°F16.6°C 82% 4.2 mph SW6.8 kmh SW 4.2 mph6.8 kmh 29.92 in1013.2 mb 0.00 in0.0 mm 0.00 in0.0 mm 0.00 in0.0 mm
08:13 AM 67.6°F19.8°C 61.9°F16.6°C 82% 2.7 mph W4.3 kmh W 5.8 mph9.3 kmh 29.92 in1013.2 mb 0.00 in0.0 mm 0.00 in0.0 mm 0.00 in0.0 mm
08:12 AM 67.5°F19.7°C 61.8°F16.6°C 82% 2.7 mph WSW4.3 kmh WSW 5.8 mph9.3 kmh 29.92 in1013.2 mb 0.00 in0.0 mm 0.00 in0.0 mm 0.00 in0.0 mm
08:11 AM 67.5°F19.7°C 61.8°F16.6°C 82% 4.2 mph S6.8 kmh S 5.8 mph9.3 kmh 29.92 in1013.2 mb 0.00 in0.0 mm 0.00 in0.0 mm 0.00 in0.0 mm
08:10 AM 67.5°F19.7°C 61.8°F16.6°C 82% 3.7 mph ENE6.0 kmh ENE 5.8 mph9.3 kmh 29.92 in1013.2 mb 0.00 in0.0 mm 0.00 in0.0 mm 0.00 in0.0 mm
08:09 AM 67.5°F19.7°C 61.8°F16.6°C 82% 1.1 mph S1.8 kmh S 5.8 mph9.3 kmh 29.92 in1013.2 mb 0.00 in0.0 mm 0.00 in0.0 mm 0.00 in0.0 mm
08:08 AM 67.3°F19.6°C 61.6°F16.4°C 82% 1.7 mph W2.7 kmh W 5.8 mph9.3 kmh 29.92 in1013.2 mb 0.00 in0.0 mm 0.00 in0.0 mm 0.00 in0.0 mm
08:07 AM 67.1°F19.5°C 61.4°F16.3°C 82% 2.2 mph W3.5 kmh W 5.8 mph9.3 kmh 29.92 in1013.2 mb 0.00 in0.0 mm 0.00 in0.0 mm 0.00 in0.0 mm
08:06 AM 67.1°F19.5°C 61.8°F16.6°C 83% 1.7 mph WNW2.7 kmh WNW 5.8 mph9.3 kmh 29.92 in1013.2 mb 0.00 in0.0 mm 0.00 in0.0 mm 0.00 in0.0 mm
08:05 AM 67.1°F19.5°C 61.8°F16.6°C 83% 2.2 mph W3.5 kmh W 5.8 mph9.3 kmh 29.92 in1013.2 mb 0.00 in0.0 mm 0.00 in0.0 mm 0.00 in0.0 mm
08:04 AM 67.1°F19.5°C 61.8°F16.6°C 83% 2.7 mph W4.3 kmh W 5.8 mph9.3 kmh 29.92 in1013.2 mb 0.00 in0.0 mm 0.00 in0.0 mm 0.00 in0.0 mm
08:03 AM 67.1°F19.5°C 61.8°F16.6°C 83% 4.2 mph NNE6.8 kmh NNE 5.3 mph8.5 kmh 29.92 in1013.2 mb 0.00 in0.0 mm 0.00 in0.0 mm 0.00 in0.0 mm
08:02 AM 66.9°F19.4°C 61.6°F16.4°C 83% 4.2 mph W6.8 kmh W 5.3 mph8.5 kmh 29.92 in1013.2 mb 0.00 in0.0 mm 0.00 in0.0 mm 0.00 in0.0 mm
08:01 AM 66.7°F19.3°C 61.7°F16.5°C 84% 1.7 mph NW2.7 kmh NW 5.3 mph8.5 kmh 29.92 in1013.2 mb 0.00 in0.0 mm 0.00 in0.0 mm 0.00 in0.0 mm
08:00 AM 66.7°F19.3°C 61.7°F16.5°C 84% 4.7 mph NNW7.6 kmh NNW 5.3 mph8.5 kmh 29.92 in1013.2 mb 0.00 in0.0 mm 0.00 in0.0 mm 0.00 in0.0 mm
07:59 AM 66.7°F19.3°C 61.7°F16.5°C 84% 2.7 mph ESE4.3 kmh ESE 5.3 mph8.5 kmh 29.92 in1013.2 mb 0.00 in0.0 mm 0.00 in0.0 mm 0.00 in0.0 mm
07:58 AM 66.7°F19.3°C 61.7°F16.5°C 84% 2.7 mph E4.3 kmh E 5.3 mph8.5 kmh 29.92 in1013.2 mb 0.00 in0.0 mm 0.00 in0.0 mm 0.00 in0.0 mm
07:57 AM 66.9°F19.4°C 61.6°F16.4°C 83% 1.1 mph NNW1.8 kmh NNW 5.3 mph8.5 kmh 29.92 in1013.2 mb 0.00 in0.0 mm 0.00 in0.0 mm 0.00 in0.0 mm
07:56 AM 66.7°F19.3°C 61.4°F16.3°C 83% 3.7 mph SW6.0 kmh SW 5.3 mph8.5 kmh 29.92 in1013.2 mb 0.00 in0.0 mm 0.00 in0.0 mm 0.00 in0.0 mm
07:55 AM 66.7°F19.3°C 61.4°F16.3°C 83% 5.3 mph W8.5 kmh W 5.3 mph8.5 kmh 29.92 in1013.2 mb 0.00 in0.0 mm 0.00 in0.0 mm 0.00 in0.0 mm
07:54 AM 66.7°F19.3°C 61.7°F16.5°C 84% 5.3 mph S8.5 kmh S 5.3 mph8.5 kmh 29.92 in1013.2 mb 0.00 in0.0 mm 0.00 in0.0 mm 0.00 in0.0 mm
07:53 AM 66.7°F19.3°C 61.7°F16.5°C 84% 4.7 mph ESE7.6 kmh ESE 5.8 mph9.3 kmh 29.92 in1013.2 mb 0.00 in0.0 mm 0.00 in0.0 mm 0.00 in0.0 mm
07:52 AM 66.7°F19.3°C 61.7°F16.5°C 84% 2.7 mph W4.3 kmh W 5.8 mph9.3 kmh 29.92 in1013.2 mb 0.00 in0.0 mm 0.00 in0.0 mm 0.00 in0.0 mm
07:51 AM 66.6°F19.2°C 61.6°F16.4°C 84% 1.7 mph SE2.7 kmh SE 5.8 mph9.3 kmh 29.92 in1013.2 mb 0.00 in0.0 mm 0.00 in0.0 mm 0.00 in0.0 mm
07:50 AM 66.6°F19.2°C 61.6°F16.4°C 84% 2.2 mph W3.5 kmh W 5.8 mph9.3 kmh 29.92 in1013.2 mb 0.00 in0.0 mm 0.00 in0.0 mm 0.00 in0.0 mm
07:49 AM 66.6°F19.2°C 61.6°F16.4°C 84% 5.3 mph W8.5 kmh W 5.8 mph9.3 kmh 29.92 in1013.2 mb 0.00 in0.0 mm 0.00 in0.0 mm 0.00 in0.0 mm
07:48 AM 66.6°F19.2°C 61.6°F16.4°C 84% 1.1 mph WNW1.8 kmh WNW 5.8 mph9.3 kmh 29.92 in1013.2 mb 0.00 in0.0 mm 0.00 in0.0 mm 0.00 in0.0 mm
07:47 AM 66.4°F19.1°C 61.4°F16.3°C 84% 1.1 mph SW1.8 kmh SW 5.8 mph9.3 kmh 29.92 in1013.2 mb 0.00 in0.0 mm 0.00 in0.0 mm 0.00 in0.0 mm
07:46 AM 66.2°F19.0°C 61.2°F16.2°C 84% 4.2 mph W6.8 kmh W 5.8 mph9.3 kmh 29.92 in1013.2 mb 0.00 in0.0 mm 0.00 in0.0 mm 0.00 in0.0 mm
07:45 AM 66.2°F19.0°C 61.2°F16.2°C 84% 2.2 mph SSE3.5 kmh SSE 5.8 mph9.3 kmh 29.92 in1013.2 mb 0.00 in0.0 mm 0.00 in0.0 mm 0.00 in0.0 mm
07:44 AM 66.2°F19.0°C 61.2°F16.2°C 84% 4.2 mph WSW6.8 kmh WSW 5.8 mph9.3 kmh 29.92 in1013.2 mb 0.00 in0.0 mm 0.00 in0.0 mm 0.00 in0.0 mm
07:43 AM 66.2°F19.0°C 61.2°F16.2°C 84% 3.7 mph SW6.0 kmh SW 5.8 mph9.3 kmh 29.92 in1013.2 mb 0.00 in0.0 mm 0.00 in0.0 mm 0.00 in0.0 mm
07:42 AM 66.2°F19.0°C 61.6°F16.4°C 85% 4.2 mph S6.8 kmh S 5.8 mph9.3 kmh 29.92 in1013.2 mb 0.00 in0.0 mm 0.00 in0.0 mm 0.00 in0.0 mm
07:41 AM 66.2°F19.0°C 61.6°F16.4°C 85% 2.7 mph WSW4.3 kmh WSW 5.8 mph9.3 kmh 29.92 in1013.2 mb 0.00 in0.0 mm 0.00 in0.0 mm 0.00 in0.0 mm
07:40 AM 66.2°F19.0°C 61.6°F16.4°C 85% 2.7 mph W4.3 kmh W 5.3 mph8.5 kmh 29.92 in1013.2 mb 0.00 in0.0 mm 0.00 in0.0 mm 0.00 in0.0 mm
07:39 AM 66.2°F19.0°C 61.6°F16.4°C 85% 4.7 mph S7.6 kmh S 5.3 mph8.5 kmh 29.92 in1013.2 mb 0.00 in0.0 mm 0.00 in0.0 mm 0.00 in0.0 mm
07:38 AM 66.2°F19.0°C 61.6°F16.4°C 85% 1.7 mph W2.7 kmh W 5.3 mph8.5 kmh 29.92 in1013.2 mb 0.00 in0.0 mm 0.00 in0.0 mm 0.00 in0.0 mm
07:37 AM 66.2°F19.0°C 61.9°F16.6°C 86% 3.2 mph W5.1 kmh W 5.3 mph8.5 kmh 29.92 in1013.2 mb 0.00 in0.0 mm 0.00 in0.0 mm 0.00 in0.0 mm
07:36 AM 66.0°F18.9°C 61.7°F16.5°C 86% 1.1 mph WNW1.8 kmh WNW 5.3 mph8.5 kmh 29.92 in1013.2 mb 0.00 in0.0 mm 0.00 in0.0 mm 0.00 in0.0 mm
07:35 AM 66.0°F18.9°C 61.7°F16.5°C 86% 1.7 mph SW2.7 kmh SW 5.3 mph8.5 kmh 29.92 in1013.2 mb 0.00 in0.0 mm 0.00 in0.0 mm 0.00 in0.0 mm
07:34 AM 66.0°F18.9°C 61.7°F16.5°C 86% 3.2 mph W5.1 kmh W 5.3 mph8.5 kmh 29.92 in1013.2 mb 0.00 in0.0 mm 0.00 in0.0 mm 0.00 in0.0 mm
07:33 AM 65.8°F18.8°C 61.5°F16.4°C 86% 4.2 mph WNW6.8 kmh WNW 5.3 mph8.5 kmh 29.92 in1013.2 mb 0.00 in0.0 mm 0.00 in0.0 mm 0.00 in0.0 mm
07:32 AM 65.8°F18.8°C 61.5°F16.4°C 86% 2.7 mph NE4.3 kmh NE 5.3 mph8.5 kmh 29.92 in1013.2 mb 0.00 in0.0 mm 0.00 in0.0 mm 0.00 in0.0 mm
07:31 AM 65.7°F18.7°C 61.4°F16.3°C 86% 2.2 mph ESE3.5 kmh ESE 5.3 mph8.5 kmh 29.92 in1013.2 mb 0.00 in0.0 mm 0.00 in0.0 mm 0.00 in0.0 mm
07:30 AM 65.7°F18.7°C 61.4°F16.3°C 86% 1.7 mph W2.7 kmh W 5.3 mph8.5 kmh 29.92 in1013.2 mb 0.00 in0.0 mm 0.00 in0.0 mm 0.00 in0.0 mm
07:29 AM 65.5°F18.6°C 61.2°F16.2°C 86% 3.7 mph W6.0 kmh W 5.3 mph8.5 kmh 29.92 in1013.2 mb 0.00 in0.0 mm 0.00 in0.0 mm 0.00 in0.0 mm
07:28 AM 65.5°F18.6°C 61.5°F16.4°C 87% 2.7 mph NNE4.3 kmh NNE 5.3 mph8.5 kmh 29.92 in1013.2 mb 0.00 in0.0 mm 0.00 in0.0 mm 0.00 in0.0 mm
07:27 AM 65.5°F18.6°C 61.5°F16.4°C 87% 5.3 mph W8.5 kmh W 5.3 mph8.5 kmh 29.92 in1013.2 mb 0.00 in0.0 mm 0.00 in0.0 mm 0.00 in0.0 mm
07:26 AM 65.3°F18.5°C 61.3°F16.3°C 87% 2.2 mph ENE3.5 kmh ENE 4.7 mph7.6 kmh 29.92 in1013.2 mb 0.00 in0.0 mm 0.00 in0.0 mm 0.00 in0.0 mm
07:25 AM 65.3°F18.5°C 61.3°F16.3°C 87% 1.1 mph WNW1.8 kmh WNW 4.7 mph7.6 kmh 29.92 in1013.2 mb 0.00 in0.0 mm 0.00 in0.0 mm 0.00 in0.0 mm
07:24 AM 65.1°F18.4°C 61.1°F16.2°C 87% 1.7 mph W2.7 kmh W 4.7 mph7.6 kmh 29.92 in1013.2 mb 0.00 in0.0 mm 0.00 in0.0 mm 0.00 in0.0 mm
07:23 AM 65.1°F18.4°C 61.1°F16.2°C 87% 4.2 mph ESE6.8 kmh ESE 4.7 mph7.6 kmh 29.92 in1013.2 mb 0.00 in0.0 mm 0.00 in0.0 mm 0.00 in0.0 mm
07:22 AM 65.1°F18.4°C 61.1°F16.2°C 87% 2.7 mph ESE4.3 kmh ESE 4.7 mph7.6 kmh 29.92 in1013.2 mb 0.00 in0.0 mm 0.00 in0.0 mm 0.00 in0.0 mm
07:21 AM 65.1°F18.4°C 61.5°F16.4°C 88% 3.2 mph ESE5.1 kmh ESE 4.7 mph7.6 kmh 29.92 in1013.2 mb 0.00 in0.0 mm 0.00 in0.0 mm 0.00 in0.0 mm
07:20 AM 65.1°F18.4°C 61.5°F16.4°C 88% 4.7 mph W7.6 kmh W 4.7 mph7.6 kmh 29.92 in1013.2 mb 0.00 in0.0 mm 0.00 in0.0 mm 0.00 in0.0 mm
07:19 AM 65.1°F18.4°C 61.5°F16.4°C 88% 3.7 mph NW6.0 kmh NW 4.2 mph6.8 kmh 29.92 in1013.2 mb 0.00 in0.0 mm 0.00 in0.0 mm 0.00 in0.0 mm
07:18 AM 65.1°F18.4°C 61.5°F16.4°C 88% 2.2 mph W3.5 kmh W 4.2 mph6.8 kmh 29.92 in1013.2 mb 0.00 in0.0 mm 0.00 in0.0 mm 0.00 in0.0 mm
07:17 AM 65.1°F18.4°C 61.5°F16.4°C 88% 2.2 mph WSW3.5 kmh WSW 4.7 mph7.6 kmh 29.92 in1013.2 mb 0.00 in0.0 mm 0.00 in0.0 mm 0.00 in0.0 mm
07:16 AM 65.1°F18.4°C 61.5°F16.4°C 88% 4.2 mph WSW6.8 kmh WSW 4.7 mph7.6 kmh 29.92 in1013.2 mb 0.00 in0.0 mm 0.00 in0.0 mm 0.00 in0.0 mm
07:15 AM 65.1°F18.4°C 61.8°F16.6°C 89% 3.2 mph N5.1 kmh N 4.7 mph7.6 kmh 29.92 in1013.2 mb 0.00 in0.0 mm 0.00 in0.0 mm 0.00 in0.0 mm
07:14 AM 64.9°F18.3°C 61.6°F16.4°C 89% 2.7 mph WNW4.3 kmh WNW 4.7 mph7.6 kmh 29.92 in1013.2 mb 0.00 in0.0 mm 0.00 in0.0 mm 0.00 in0.0 mm
07:13 AM 64.8°F18.2°C 61.5°F16.4°C 89% 1.7 mph SSW2.7 kmh SSW 4.7 mph7.6 kmh 29.92 in1013.2 mb 0.00 in0.0 mm 0.00 in0.0 mm 0.00 in0.0 mm
07:12 AM 64.8°F18.2°C 61.5°F16.4°C 89% 1.7 mph S2.7 kmh S 4.7 mph7.6 kmh 29.92 in1013.2 mb 0.00 in0.0 mm 0.00 in0.0 mm 0.00 in0.0 mm
07:11 AM 64.8°F18.2°C 61.5°F16.4°C 89% 3.2 mph ESE5.1 kmh ESE 4.7 mph7.6 kmh 29.92 in1013.2 mb 0.00 in0.0 mm 0.00 in0.0 mm 0.00 in0.0 mm
07:10 AM 64.6°F18.1°C 61.6°F16.4°C 90% 2.7 mph WSW4.3 kmh WSW 4.7 mph7.6 kmh 29.92 in1013.2 mb 0.00 in0.0 mm 0.00 in0.0 mm 0.00 in0.0 mm
07:09 AM 64.6°F18.1°C 61.6°F16.4°C 90% 1.1 mph ESE1.8 kmh ESE 4.7 mph7.6 kmh 29.92 in1013.2 mb 0.00 in0.0 mm 0.00 in0.0 mm 0.00 in0.0 mm
07:08 AM 64.4°F18.0°C 61.4°F16.3°C 90% Calm Calm 4.7 mph7.6 kmh 29.92 in1013.2 mb 0.00 in0.0 mm 0.00 in0.0 mm 0.00 in0.0 mm
07:07 AM 64.4°F18.0°C 61.4°F16.3°C 90% 4.7 mph WSW7.6 kmh WSW 4.7 mph7.6 kmh 29.92 in1013.2 mb 0.00 in0.0 mm 0.00 in0.0 mm 0.00 in0.0 mm
07:06 AM 64.4°F18.0°C 61.4°F16.3°C 90% 1.7 mph SW2.7 kmh SW 3.2 mph5.1 kmh 29.92 in1013.2 mb 0.00 in0.0 mm 0.00 in0.0 mm 0.00 in0.0 mm
07:05 AM 64.4°F18.0°C 61.4°F16.3°C 90% 2.7 mph W4.3 kmh W 3.2 mph5.1 kmh 29.92 in1013.2 mb 0.00 in0.0 mm 0.00 in0.0 mm 0.00 in0.0 mm
07:04 AM 64.2°F17.9°C 61.2°F16.2°C 90% 3.2 mph W5.1 kmh W 3.7 mph6.0 kmh 29.91 in1012.9 mb 0.00 in0.0 mm 0.00 in0.0 mm 0.00 in0.0 mm
07:03 AM 64.2°F17.9°C 61.2°F16.2°C 90% 2.2 mph SW3.5 kmh SW 3.7 mph6.0 kmh 29.91 in1012.9 mb 0.00 in0.0 mm 0.00 in0.0 mm 0.00 in0.0 mm
07:02 AM 64.2°F17.9°C 61.2°F16.2°C 90% 2.7 mph W4.3 kmh W 3.7 mph6.0 kmh 29.91 in1012.9 mb 0.00 in0.0 mm 0.00 in0.0 mm 0.00 in0.0 mm
07:01 AM 64.2°F17.9°C 61.5°F16.4°C 91% 1.1 mph W1.8 kmh W 3.7 mph6.0 kmh 29.91 in1012.9 mb 0.00 in0.0 mm 0.00 in0.0 mm 0.00 in0.0 mm
07:00 AM 64.2°F17.9°C 61.5°F16.4°C 91% 2.2 mph NNW3.5 kmh NNW 3.7 mph6.0 kmh 29.91 in1012.9 mb 0.00 in0.0 mm 0.00 in0.0 mm 0.00 in0.0 mm
06:59 AM 64.2°F17.9°C 61.5°F16.4°C 91% Calm Calm 3.7 mph6.0 kmh 29.91 in1012.9 mb 0.00 in0.0 mm 0.00 in0.0 mm 0.00 in0.0 mm
06:58 AM 64.2°F17.9°C 61.5°F16.4°C 91% 1.1 mph W1.8 kmh W 4.2 mph6.8 kmh 29.91 in1012.9 mb 0.00 in0.0 mm 0.00 in0.0 mm 0.00 in0.0 mm
06:57 AM 64.0°F17.8°C 61.3°F16.3°C 91% 1.7 mph W2.7 kmh W 4.2 mph6.8 kmh 29.91 in1012.9 mb 0.00 in0.0 mm 0.00 in0.0 mm 0.00 in0.0 mm
06:56 AM 64.0°F17.8°C 61.3°F16.3°C 91% 2.7 mph WSW4.3 kmh WSW 4.2 mph6.8 kmh 29.91 in1012.9 mb 0.00 in0.0 mm 0.00 in0.0 mm 0.00 in0.0 mm
06:55 AM 63.9°F17.7°C 61.2°F16.2°C 91% 2.2 mph W3.5 kmh W 4.2 mph6.8 kmh 29.91 in1012.9 mb 0.00 in0.0 mm 0.00 in0.0 mm 0.00 in0.0 mm
06:54 AM 63.9°F17.7°C 61.2°F16.2°C 91% 3.7 mph W6.0 kmh W 4.2 mph6.8 kmh 29.91 in1012.9 mb 0.00 in0.0 mm 0.00 in0.0 mm 0.00 in0.0 mm
06:53 AM 63.9°F17.7°C 61.2°F16.2°C 91% 1.1 mph W1.8 kmh W 4.2 mph6.8 kmh 29.91 in1012.9 mb 0.00 in0.0 mm 0.00 in0.0 mm 0.00 in0.0 mm
06:52 AM 63.9°F17.7°C 61.2°F16.2°C 91% 1.1 mph WNW1.8 kmh WNW 4.2 mph6.8 kmh 29.91 in1012.9 mb 0.00 in0.0 mm 0.00 in0.0 mm 0.00 in0.0 mm
06:51 AM 63.9°F17.7°C 61.5°F16.4°C 92% 2.2 mph SW3.5 kmh SW 4.2 mph6.8 kmh 29.91 in1012.9 mb 0.00 in0.0 mm 0.00 in0.0 mm 0.00 in0.0 mm
06:50 AM 63.7°F17.6°C 61.3°F16.3°C 92% 1.1 mph W1.8 kmh W 4.2 mph6.8 kmh 29.91 in1012.9 mb 0.00 in0.0 mm 0.00 in0.0 mm 0.00 in0.0 mm
06:49 AM 63.7°F17.6°C 61.3°F16.3°C 92% 2.7 mph W4.3 kmh W 4.2 mph6.8 kmh 29.91 in1012.9 mb 0.00 in0.0 mm 0.00 in0.0 mm 0.00 in0.0 mm
06:48 AM 63.7°F17.6°C 61.3°F16.3°C 92% 3.2 mph SSW5.1 kmh SSW 4.2 mph6.8 kmh 29.91 in1012.9 mb 0.00 in0.0 mm 0.00 in0.0 mm 0.00 in0.0 mm
06:47 AM 63.7°F17.6°C 61.3°F16.3°C 92% 3.7 mph ENE6.0 kmh ENE 4.2 mph6.8 kmh 29.91 in1012.9 mb 0.00 in0.0 mm 0.00 in0.0 mm 0.00 in0.0 mm
06:46 AM 63.5°F17.5°C 61.1°F16.2°C 92% 2.7 mph W4.3 kmh W 4.2 mph6.8 kmh 29.91 in1012.9 mb 0.00 in0.0 mm 0.00 in0.0 mm 0.00 in0.0 mm
06:45 AM 63.5°F17.5°C 61.1°F16.2°C 92% 3.2 mph S5.1 kmh S 4.2 mph6.8 kmh 29.91 in1012.9 mb 0.00 in0.0 mm 0.00 in0.0 mm 0.00 in0.0 mm
06:44 AM 63.5°F17.5°C 61.1°F16.2°C 92% 4.2 mph WSW6.8 kmh WSW 4.2 mph6.8 kmh 29.91 in1012.9 mb 0.00 in0.0 mm 0.00 in0.0 mm 0.00 in0.0 mm
06:43 AM 63.5°F17.5°C 61.1°F16.2°C 92% 4.2 mph ESE6.8 kmh ESE 4.2 mph6.8 kmh 29.91 in1012.9 mb 0.00 in0.0 mm 0.00 in0.0 mm 0.00 in0.0 mm
06:42 AM 63.5°F17.5°C 61.4°F16.3°C 93% 2.2 mph ESE3.5 kmh ESE 4.2 mph6.8 kmh 29.91 in1012.9 mb 0.00 in0.0 mm 0.00 in0.0 mm 0.00 in0.0 mm
06:41 AM 63.5°F17.5°C 61.4°F16.3°C 93% 1.7 mph NNE2.7 kmh NNE 5.3 mph8.5 kmh 29.91 in1012.9 mb 0.00 in0.0 mm 0.00 in0.0 mm 0.00 in0.0 mm
06:40 AM 63.3°F17.4°C 61.2°F16.2°C 93% 1.1 mph W1.8 kmh W 5.3 mph8.5 kmh 29.91 in1012.9 mb 0.00 in0.0 mm 0.00 in0.0 mm 0.00 in0.0 mm
06:39 AM 63.3°F17.4°C 61.2°F16.2°C 93% 2.2 mph ENE3.5 kmh ENE 5.3 mph8.5 kmh 29.91 in1012.9 mb 0.00 in0.0 mm 0.00 in0.0 mm 0.00 in0.0 mm
06:38 AM 63.3°F17.4°C 61.2°F16.2°C 93% Calm Calm 5.3 mph8.5 kmh 29.91 in1012.9 mb 0.00 in0.0 mm 0.00 in0.0 mm 0.00 in0.0 mm
06:37 AM 63.1°F17.3°C 61.0°F16.1°C 93% 2.2 mph W3.5 kmh W 5.3 mph8.5 kmh 29.91 in1012.9 mb 0.00 in0.0 mm 0.00 in0.0 mm 0.00 in0.0 mm
06:36 AM 63.1°F17.3°C 61.0°F16.1°C 93% 2.2 mph W3.5 kmh W 5.3 mph8.5 kmh 29.91 in1012.9 mb 0.00 in0.0 mm 0.00 in0.0 mm 0.00 in0.0 mm
06:35 AM 63.1°F17.3°C 61.0°F16.1°C 93% 1.7 mph ESE2.7 kmh ESE 5.3 mph8.5 kmh 29.91 in1012.9 mb 0.00 in0.0 mm 0.00 in0.0 mm 0.00 in0.0 mm
06:34 AM 63.0°F17.2°C 60.9°F16.1°C 93% 1.1 mph ENE1.8 kmh ENE 5.3 mph8.5 kmh 29.91 in1012.9 mb 0.00 in0.0 mm 0.00 in0.0 mm 0.00 in0.0 mm
06:33 AM 63.0°F17.2°C 60.9°F16.1°C 93% 2.7 mph W4.3 kmh W 5.3 mph8.5 kmh 29.91 in1012.9 mb 0.00 in0.0 mm 0.00 in0.0 mm 0.00 in0.0 mm
06:32 AM 63.0°F17.2°C 60.9°F16.1°C 93% 3.7 mph W6.0 kmh W 5.3 mph8.5 kmh 29.91 in1012.9 mb 0.00 in0.0 mm 0.00 in0.0 mm 0.00 in0.0 mm
06:31 AM 63.0°F17.2°C 60.9°F16.1°C 93% 4.2 mph W6.8 kmh W 5.3 mph8.5 kmh 29.91 in1012.9 mb 0.00 in0.0 mm 0.00 in0.0 mm 0.00 in0.0 mm
06:30 AM 63.0°F17.2°C 60.9°F16.1°C 93% 2.2 mph NNE3.5 kmh NNE 5.3 mph8.5 kmh 29.91 in1012.9 mb 0.00 in0.0 mm 0.00 in0.0 mm 0.00 in0.0 mm
06:29 AM 62.8°F17.1°C 61.0°F16.1°C 94% 2.2 mph ESE3.5 kmh ESE 5.3 mph8.5 kmh 29.91 in1012.9 mb 0.00 in0.0 mm 0.00 in0.0 mm 0.00 in0.0 mm
06:28 AM 62.8°F17.1°C 61.0°F16.1°C 94% 3.7 mph ESE6.0 kmh ESE 5.3 mph8.5 kmh 29.91 in1012.9 mb 0.00 in0.0 mm 0.00 in0.0 mm 0.00 in0.0 mm
06:27 AM 62.8°F17.1°C 61.0°F16.1°C 94% 3.7 mph W6.0 kmh W 5.3 mph8.5 kmh 29.91 in1012.9 mb 0.00 in0.0 mm 0.00 in0.0 mm 0.00 in0.0 mm
06:26 AM 62.8°F17.1°C 61.0°F16.1°C 94% 3.7 mph WNW6.0 kmh WNW 5.3 mph8.5 kmh 29.91 in1012.9 mb 0.00 in0.0 mm 0.00 in0.0 mm 0.00 in0.0 mm
06:25 AM 62.8°F17.1°C 61.0°F16.1°C 94% 2.7 mph WSW4.3 kmh WSW 5.3 mph8.5 kmh 29.91 in1012.9 mb 0.00 in0.0 mm 0.00 in0.0 mm 0.00 in0.0 mm
06:24 AM 62.8°F17.1°C 61.0°F16.1°C 94% 4.2 mph W6.8 kmh W 5.3 mph8.5 kmh 29.91 in1012.9 mb 0.00 in0.0 mm 0.00 in0.0 mm 0.00 in0.0 mm
06:23 AM 62.6°F17.0°C 60.8°F16.0°C 94% 1.7 mph SW2.7 kmh SW 5.3 mph8.5 kmh 29.91 in1012.9 mb 0.00 in0.0 mm 0.00 in0.0 mm 0.00 in0.0 mm
06:22 AM 62.6°F17.0°C 60.8°F16.0°C 94% 5.3 mph W8.5 kmh W 5.3 mph8.5 kmh 29.91 in1012.9 mb 0.00 in0.0 mm 0.00 in0.0 mm 0.00 in0.0 mm
06:21 AM 62.6°F17.0°C 60.8°F16.0°C 94% 1.7 mph SSE2.7 kmh SSE 5.8 mph9.3 kmh 29.91 in1012.9 mb 0.00 in0.0 mm 0.00 in0.0 mm 0.00 in0.0 mm
06:20 AM 62.6°F17.0°C 60.8°F16.0°C 94% 1.7 mph W2.7 kmh W 5.8 mph9.3 kmh 29.91 in1012.9 mb 0.00 in0.0 mm 0.00 in0.0 mm 0.00 in0.0 mm
06:19 AM 62.4°F16.9°C 60.6°F15.9°C 94% 4.7 mph WSW7.6 kmh WSW 5.8 mph9.3 kmh 29.91 in1012.9 mb 0.00 in0.0 mm 0.00 in0.0 mm 0.00 in0.0 mm
06:18 AM 62.4°F16.9°C 60.6°F15.9°C 94% 2.7 mph W4.3 kmh W 5.8 mph9.3 kmh 29.91 in1012.9 mb 0.00 in0.0 mm 0.00 in0.0 mm 0.00 in0.0 mm
06:17 AM 62.4°F16.9°C 60.9°F16.1°C 95% 3.7 mph SW6.0 kmh SW 5.8 mph9.3 kmh 29.91 in1012.9 mb 0.00 in0.0 mm 0.00 in0.0 mm 0.00 in0.0 mm
06:16 AM 62.4°F16.9°C 60.9°F16.1°C 95% 1.7 mph ENE2.7 kmh ENE 5.8 mph9.3 kmh 29.90 in1012.5 mb 0.00 in0.0 mm 0.00 in0.0 mm 0.00 in0.0 mm
06:15 AM 62.4°F16.9°C 60.9°F16.1°C 95% 2.7 mph W4.3 kmh W 5.8 mph9.3 kmh 29.90 in1012.5 mb 0.00 in0.0 mm 0.00 in0.0 mm 0.00 in0.0 mm
06:14 AM 62.4°F16.9°C 60.9°F16.1°C 95% 2.7 mph W4.3 kmh W 5.8 mph9.3 kmh 29.90 in1012.5 mb 0.00 in0.0 mm 0.00 in0.0 mm 0.00 in0.0 mm
06:13 AM 62.4°F16.9°C 60.9°F16.1°C 95% 2.2 mph ESE3.5 kmh ESE 5.8 mph9.3 kmh 29.90 in1012.5 mb 0.00 in0.0 mm 0.00 in0.0 mm 0.00 in0.0 mm
06:12 AM 62.2°F16.8°C 60.7°F15.9°C 95% 2.7 mph SW4.3 kmh SW 5.8 mph9.3 kmh 29.90 in1012.5 mb 0.00 in0.0 mm 0.00 in0.0 mm 0.00 in0.0 mm
06:11 AM 62.2°F16.8°C 60.7°F15.9°C 95% 2.2 mph W3.5 kmh W 4.7 mph7.6 kmh 29.90 in1012.5 mb 0.00 in0.0 mm 0.00 in0.0 mm 0.00 in0.0 mm
06:10 AM 62.2°F16.8°C 60.7°F15.9°C 95% 2.2 mph SSW3.5 kmh SSW 4.7 mph7.6 kmh 29.90 in1012.5 mb 0.00 in0.0 mm 0.00 in0.0 mm 0.00 in0.0 mm
06:09 AM 62.2°F16.8°C 60.7°F15.9°C 95% 3.7 mph NNE6.0 kmh NNE 4.7 mph7.6 kmh 29.90 in1012.5 mb 0.00 in0.0 mm 0.00 in0.0 mm 0.00 in0.0 mm
06:08 AM 62.2°F16.8°C 60.7°F15.9°C 95% 2.2 mph SW3.5 kmh SW 4.7 mph7.6 kmh 29.90 in1012.5 mb 0.00 in0.0 mm 0.00 in0.0 mm 0.00 in0.0 mm
06:07 AM 62.2°F16.8°C 60.7°F15.9°C 95% 2.2 mph NW3.5 kmh NW 4.7 mph7.6 kmh 29.90 in1012.5 mb 0.00 in0.0 mm 0.00 in0.0 mm 0.00 in0.0 mm
06:06 AM 62.2°F16.8°C 60.7°F15.9°C 95% 2.7 mph W4.3 kmh W 5.8 mph9.3 kmh 29.90 in1012.5 mb 0.00 in0.0 mm 0.00 in0.0 mm 0.00 in0.0 mm
06:05 AM 62.1°F16.7°C 60.6°F15.9°C 95% 2.2 mph WNW3.5 kmh WNW 5.8 mph9.3 kmh 29.90 in1012.5 mb 0.00 in0.0 mm 0.00 in0.0 mm 0.00 in0.0 mm
06:04 AM 62.1°F16.7°C 60.6°F15.9°C 95% 2.7 mph NNE4.3 kmh NNE 5.8 mph9.3 kmh 29.90 in1012.5 mb 0.00 in0.0 mm 0.00 in0.0 mm 0.00 in0.0 mm
06:03 AM 62.1°F16.7°C 60.6°F15.9°C 95% 1.7 mph NW2.7 kmh NW 5.8 mph9.3 kmh 29.90 in1012.5 mb 0.00 in0.0 mm 0.00 in0.0 mm 0.00 in0.0 mm
06:02 AM 62.1°F16.7°C 60.6°F15.9°C 95% 2.2 mph WSW3.5 kmh WSW 5.8 mph9.3 kmh 29.90 in1012.5 mb 0.00 in0.0 mm 0.00 in0.0 mm 0.00 in0.0 mm
06:01 AM 62.1°F16.7°C 60.6°F15.9°C 95% 4.2 mph W6.8 kmh W 5.8 mph9.3 kmh 29.90 in1012.5 mb 0.00 in0.0 mm 0.00 in0.0 mm 0.00 in0.0 mm
06:00 AM 62.1°F16.7°C 60.6°F15.9°C 95% 2.7 mph W4.3 kmh W 5.8 mph9.3 kmh 29.90 in1012.5 mb 0.00 in0.0 mm 0.00 in0.0 mm 0.00 in0.0 mm
05:59 AM 62.1°F16.7°C 60.6°F15.9°C 95% 1.7 mph SSE2.7 kmh SSE 5.8 mph9.3 kmh 29.90 in1012.5 mb 0.00 in0.0 mm 0.00 in0.0 mm 0.00 in0.0 mm
05:58 AM 62.1°F16.7°C 60.6°F15.9°C 95% 2.2 mph W3.5 kmh W 6.3 mph10.1 kmh 29.90 in1012.5 mb 0.00 in0.0 mm 0.00 in0.0 mm 0.00 in0.0 mm
05:57 AM 62.1°F16.7°C 60.6°F15.9°C 95% 2.7 mph W4.3 kmh W 6.3 mph10.1 kmh 29.90 in1012.5 mb 0.00 in0.0 mm 0.00 in0.0 mm 0.00 in0.0 mm
05:56 AM 62.1°F16.7°C 60.6°F15.9°C 95% 4.7 mph WNW7.6 kmh WNW 6.3 mph10.1 kmh 29.90 in1012.5 mb 0.00 in0.0 mm 0.00 in0.0 mm 0.00 in0.0 mm
05:55 AM 62.1°F16.7°C 60.6°F15.9°C 95% 3.7 mph S6.0 kmh S 6.3 mph10.1 kmh 29.90 in1012.5 mb 0.00 in0.0 mm 0.00 in0.0 mm 0.00 in0.0 mm
05:54 AM 62.1°F16.7°C 60.6°F15.9°C 95% 4.2 mph W6.8 kmh W 6.3 mph10.1 kmh 29.90 in1012.5 mb 0.00 in0.0 mm 0.00 in0.0 mm 0.00 in0.0 mm
05:53 AM 62.1°F16.7°C 60.6°F15.9°C 95% 2.7 mph W4.3 kmh W 6.3 mph10.1 kmh 29.91 in1012.9 mb 0.00 in0.0 mm 0.00 in0.0 mm 0.00 in0.0 mm
05:52 AM 61.9°F16.6°C 60.5°F15.8°C 95% 1.7 mph ESE2.7 kmh ESE 6.3 mph10.1 kmh 29.91 in1012.9 mb 0.00 in0.0 mm 0.00 in0.0 mm 0.00 in0.0 mm
05:51 AM 61.9°F16.6°C 60.5°F15.8°C 95% 1.7 mph WNW2.7 kmh WNW 6.3 mph10.1 kmh 29.91 in1012.9 mb 0.00 in0.0 mm 0.00 in0.0 mm 0.00 in0.0 mm
05:50 AM 61.9°F16.6°C 60.5°F15.8°C 95% 4.7 mph WNW7.6 kmh WNW 6.3 mph10.1 kmh 29.91 in1012.9 mb 0.00 in0.0 mm 0.00 in0.0 mm 0.00 in0.0 mm
05:49 AM 61.9°F16.6°C 60.5°F15.8°C 95% 1.7 mph ESE2.7 kmh ESE 6.3 mph10.1 kmh 29.91 in1012.9 mb 0.00 in0.0 mm 0.00 in0.0 mm 0.00 in0.0 mm
05:48 AM 61.9°F16.6°C 60.5°F15.8°C 95% 6.3 mph W10.1 kmh W 6.3 mph10.1 kmh 29.91 in1012.9 mb 0.00 in0.0 mm 0.00 in0.0 mm 0.00 in0.0 mm
05:47 AM 61.9°F16.6°C 60.5°F15.8°C 95% 2.2 mph SSE3.5 kmh SSE 4.7 mph7.6 kmh 29.91 in1012.9 mb 0.00 in0.0 mm 0.00 in0.0 mm 0.00 in0.0 mm
05:46 AM 61.9°F16.6°C 60.5°F15.8°C 95% 2.7 mph WNW4.3 kmh WNW 4.7 mph7.6 kmh 29.91 in1012.9 mb 0.00 in0.0 mm 0.00 in0.0 mm 0.00 in0.0 mm
05:45 AM 61.9°F16.6°C 60.5°F15.8°C 95% 2.2 mph SSW3.5 kmh SSW 4.7 mph7.6 kmh 29.91 in1012.9 mb 0.00 in0.0 mm 0.00 in0.0 mm 0.00 in0.0 mm
05:44 AM 61.9°F16.6°C 60.5°F15.8°C 95% 2.2 mph W3.5 kmh W 3.7 mph6.0 kmh 29.91 in1012.9 mb 0.00 in0.0 mm 0.00 in0.0 mm 0.00 in0.0 mm
05:43 AM 61.9°F16.6°C 60.5°F15.8°C 95% 2.2 mph ESE3.5 kmh ESE 3.7 mph6.0 kmh 29.91 in1012.9 mb 0.00 in0.0 mm 0.00 in0.0 mm 0.00 in0.0 mm
05:42 AM 61.9°F16.6°C 60.5°F15.8°C 95% 2.2 mph WNW3.5 kmh WNW 3.7 mph6.0 kmh 29.91 in1012.9 mb 0.00 in0.0 mm 0.00 in0.0 mm 0.00 in0.0 mm
05:41 AM 61.9°F16.6°C 60.5°F15.8°C 95% 3.7 mph WSW6.0 kmh WSW 3.7 mph6.0 kmh 29.91 in1012.9 mb 0.00 in0.0 mm 0.00 in0.0 mm 0.00 in0.0 mm
05:40 AM 61.9°F16.6°C 60.5°F15.8°C 95% 2.7 mph SSW4.3 kmh SSW 3.7 mph6.0 kmh 29.90 in1012.5 mb 0.00 in0.0 mm 0.00 in0.0 mm 0.00 in0.0 mm
05:39 AM 61.9°F16.6°C 60.5°F15.8°C 95% 3.2 mph WSW5.1 kmh WSW 3.7 mph6.0 kmh 29.90 in1012.5 mb 0.00 in0.0 mm 0.00 in0.0 mm 0.00 in0.0 mm
05:38 AM 61.9°F16.6°C 60.5°F15.8°C 95% 2.2 mph SW3.5 kmh SW 4.7 mph7.6 kmh 29.90 in1012.5 mb 0.00 in0.0 mm 0.00 in0.0 mm 0.00 in0.0 mm
05:37 AM 61.9°F16.6°C 60.5°F15.8°C 95% 2.7 mph WSW4.3 kmh WSW 4.7 mph7.6 kmh 29.90 in1012.5 mb 0.00 in0.0 mm 0.00 in0.0 mm 0.00 in0.0 mm
05:36 AM 61.7°F16.5°C 60.3°F15.7°C 95% 2.7 mph W4.3 kmh W 5.3 mph8.5 kmh 29.90 in1012.5 mb 0.00 in0.0 mm 0.00 in0.0 mm 0.00 in0.0 mm
05:35 AM 61.7°F16.5°C 60.3°F15.7°C 95% 2.7 mph WSW4.3 kmh WSW 5.3 mph8.5 kmh 29.90 in1012.5 mb 0.00 in0.0 mm 0.00 in0.0 mm 0.00 in0.0 mm
05:34 AM 61.7°F16.5°C 60.3°F15.7°C 95% 2.2 mph W3.5 kmh W 5.3 mph8.5 kmh 29.90 in1012.5 mb 0.00 in0.0 mm 0.00 in0.0 mm 0.00 in0.0 mm
05:33 AM 61.7°F16.5°C 60.3°F15.7°C 95% 2.2 mph W3.5 kmh W 5.3 mph8.5 kmh 29.90 in1012.5 mb 0.00 in0.0 mm 0.00 in0.0 mm 0.00 in0.0 mm
05:32 AM 61.7°F16.5°C 60.3°F15.7°C 95% 2.7 mph WSW4.3 kmh WSW 5.3 mph8.5 kmh 29.90 in1012.5 mb 0.00 in0.0 mm 0.00 in0.0 mm 0.00 in0.0 mm
05:31 AM 61.7°F16.5°C 60.3°F15.7°C 95% 3.2 mph ENE5.1 kmh ENE 5.3 mph8.5 kmh 29.90 in1012.5 mb 0.00 in0.0 mm 0.00 in0.0 mm 0.00 in0.0 mm
05:30 AM 61.7°F16.5°C 60.3°F15.7°C 95% 2.7 mph ENE4.3 kmh ENE 5.3 mph8.5 kmh 29.90 in1012.5 mb 0.00 in0.0 mm 0.00 in0.0 mm 0.00 in0.0 mm
05:29 AM 61.7°F16.5°C 60.3°F15.7°C 95% 2.7 mph W4.3 kmh W 5.3 mph8.5 kmh 29.90 in1012.5 mb 0.00 in0.0 mm 0.00 in0.0 mm 0.00 in0.0 mm
05:28 AM 61.7°F16.5°C 60.3°F15.7°C 95% 2.7 mph W4.3 kmh W 5.3 mph8.5 kmh 29.90 in1012.5 mb 0.00 in0.0 mm 0.00 in0.0 mm 0.00 in0.0 mm
05:27 AM 61.7°F16.5°C 60.3°F15.7°C 95% 3.7 mph W6.0 kmh W 5.3 mph8.5 kmh 29.90 in1012.5 mb 0.00 in0.0 mm 0.00 in0.0 mm 0.00 in0.0 mm
05:26 AM 61.7°F16.5°C 60.3°F15.7°C 95% 4.2 mph W6.8 kmh W 6.3 mph10.1 kmh 29.90 in1012.5 mb 0.00 in0.0 mm 0.00 in0.0 mm 0.00 in0.0 mm
05:25 AM 61.7°F16.5°C 60.3°F15.7°C 95% 2.7 mph SW4.3 kmh SW 6.3 mph10.1 kmh 29.90 in1012.5 mb 0.00 in0.0 mm 0.00 in0.0 mm 0.00 in0.0 mm
05:24 AM 61.7°F16.5°C 60.3°F15.7°C 95% 2.7 mph N4.3 kmh N 6.3 mph10.1 kmh 29.90 in1012.5 mb 0.00 in0.0 mm 0.00 in0.0 mm 0.00 in0.0 mm
05:23 AM 61.7°F16.5°C 60.3°F15.7°C 95% 2.7 mph ESE4.3 kmh ESE 6.3 mph10.1 kmh 29.90 in1012.5 mb 0.00 in0.0 mm 0.00 in0.0 mm 0.00 in0.0 mm
05:22 AM 61.7°F16.5°C 60.3°F15.7°C 95% 2.7 mph W4.3 kmh W 6.3 mph10.1 kmh 29.90 in1012.5 mb 0.00 in0.0 mm 0.00 in0.0 mm 0.00 in0.0 mm
05:21 AM 61.7°F16.5°C 60.3°F15.7°C 95% 2.7 mph WSW4.3 kmh WSW 6.3 mph10.1 kmh 29.90 in1012.5 mb 0.00 in0.0 mm 0.00 in0.0 mm 0.00 in0.0 mm
05:20 AM 61.7°F16.5°C 60.3°F15.7°C 95% 3.2 mph W5.1 kmh W 6.3 mph10.1 kmh 29.90 in1012.5 mb 0.00 in0.0 mm 0.00 in0.0 mm 0.00 in0.0 mm
05:19 AM 61.7°F16.5°C 60.3°F15.7°C 95% 1.7 mph S2.7 kmh S 6.3 mph10.1 kmh 29.90 in1012.5 mb 0.00 in0.0 mm 0.00 in0.0 mm 0.00 in0.0 mm
05:18 AM 61.7°F16.5°C 60.3°F15.7°C 95% 2.2 mph WSW3.5 kmh WSW 6.3 mph10.1 kmh 29.90 in1012.5 mb 0.00 in0.0 mm 0.00 in0.0 mm 0.00 in0.0 mm
05:17 AM 61.7°F16.5°C 60.3°F15.7°C 95% 2.2 mph NE3.5 kmh NE 6.3 mph10.1 kmh 29.90 in1012.5 mb 0.00 in0.0 mm 0.00 in0.0 mm 0.00 in0.0 mm
05:16 AM 61.7°F16.5°C 60.3°F15.7°C 95% 4.7 mph WSW7.6 kmh WSW 4.7 mph7.6 kmh 29.89 in1012.2 mb 0.00 in0.0 mm 0.00 in0.0 mm 0.00 in0.0 mm
05:15 AM 61.7°F16.5°C 60.3°F15.7°C 95% 4.2 mph W6.8 kmh W 4.2 mph6.8 kmh 29.89 in1012.2 mb 0.00 in0.0 mm 0.00 in0.0 mm 0.00 in0.0 mm
05:14 AM 61.7°F16.5°C 60.3°F15.7°C 95% 1.7 mph W2.7 kmh W 4.2 mph6.8 kmh 29.89 in1012.2 mb 0.00 in0.0 mm 0.00 in0.0 mm 0.00 in0.0 mm
05:13 AM 61.7°F16.5°C 60.3°F15.7°C 95% 2.7 mph NE4.3 kmh NE 4.2 mph6.8 kmh 29.89 in1012.2 mb 0.00 in0.0 mm 0.00 in0.0 mm 0.00 in0.0 mm
05:12 AM 61.7°F16.5°C 60.3°F15.7°C 95% 1.7 mph W2.7 kmh W 4.2 mph6.8 kmh 29.89 in1012.2 mb 0.00 in0.0 mm 0.00 in0.0 mm 0.00 in0.0 mm
05:11 AM 61.7°F16.5°C 60.3°F15.7°C 95% 3.2 mph ESE5.1 kmh ESE 4.2 mph6.8 kmh 29.89 in1012.2 mb 0.00 in0.0 mm 0.00 in0.0 mm 0.00 in0.0 mm
05:10 AM 61.7°F16.5°C 60.3°F15.7°C 95% 1.7 mph W2.7 kmh W 3.2 mph5.1 kmh 29.89 in1012.2 mb 0.00 in0.0 mm 0.00 in0.0 mm 0.00 in0.0 mm
05:09 AM 61.7°F16.5°C 60.3°F15.7°C 95% 2.7 mph SSW4.3 kmh SSW 2.7 mph4.3 kmh 29.89 in1012.2 mb 0.00 in0.0 mm 0.00 in0.0 mm 0.00 in0.0 mm
05:08 AM 61.7°F16.5°C 60.3°F15.7°C 95% 1.7 mph WSW2.7 kmh WSW 2.7 mph4.3 kmh 29.89 in1012.2 mb 0.00 in0.0 mm 0.00 in0.0 mm 0.00 in0.0 mm
05:07 AM 61.7°F16.5°C 60.3°F15.7°C 95% 1.7 mph WSW2.7 kmh WSW 2.7 mph4.3 kmh 29.89 in1012.2 mb 0.00 in0.0 mm 0.00 in0.0 mm 0.00 in0.0 mm
05:06 AM 61.7°F16.5°C 60.3°F15.7°C 95% 2.2 mph WSW3.5 kmh WSW 3.7 mph6.0 kmh 29.89 in1012.2 mb 0.00 in0.0 mm 0.00 in0.0 mm 0.00 in0.0 mm
05:05 AM 61.7°F16.5°C 60.3°F15.7°C 95% 1.7 mph W2.7 kmh W 3.7 mph6.0 kmh 29.90 in1012.5 mb 0.00 in0.0 mm 0.00 in0.0 mm 0.00 in0.0 mm
05:04 AM 61.7°F16.5°C 60.3°F15.7°C 95% 1.7 mph SSW2.7 kmh SSW 3.7 mph6.0 kmh 29.90 in1012.5 mb 0.00 in0.0 mm 0.00 in0.0 mm 0.00 in0.0 mm
05:03 AM 61.7°F16.5°C 60.3°F15.7°C 95% 2.2 mph NNW3.5 kmh NNW 3.7 mph6.0 kmh 29.90 in1012.5 mb 0.00 in0.0 mm 0.00 in0.0 mm 0.00 in0.0 mm
05:02 AM 61.5°F16.4°C 60.1°F15.6°C 95% 1.1 mph NNE1.8 kmh NNE 3.7 mph6.0 kmh 29.90 in1012.5 mb 0.00 in0.0 mm 0.00 in0.0 mm 0.00 in0.0 mm
05:01 AM 61.5°F16.4°C 60.1°F15.6°C 95% Calm Calm 3.7 mph6.0 kmh 29.90 in1012.5 mb 0.00 in0.0 mm 0.00 in0.0 mm 0.00 in0.0 mm
05:00 AM 61.5°F16.4°C 60.1°F15.6°C 95% 1.1 mph SSE1.8 kmh SSE 3.7 mph6.0 kmh 29.90 in1012.5 mb 0.00 in0.0 mm 0.00 in0.0 mm 0.00 in0.0 mm
04:59 AM 61.5°F16.4°C 60.1°F15.6°C 95% 1.7 mph SSE2.7 kmh SSE 3.7 mph6.0 kmh 29.90 in1012.5 mb 0.00 in0.0 mm 0.00 in0.0 mm 0.00 in0.0 mm
04:58 AM 61.5°F16.4°C 60.1°F15.6°C 95% 2.7 mph ESE4.3 kmh ESE 5.3 mph8.5 kmh 29.90 in1012.5 mb 0.00 in0.0 mm 0.00 in0.0 mm 0.00 in0.0 mm
04:57 AM 61.5°F16.4°C 60.1°F15.6°C 95% 2.2 mph ENE3.5 kmh ENE 5.3 mph8.5 kmh 29.90 in1012.5 mb 0.00 in0.0 mm 0.00 in0.0 mm 0.00 in0.0 mm
04:56 AM 61.5°F16.4°C 60.1°F15.6°C 95% 2.2 mph W3.5 kmh W 5.3 mph8.5 kmh 29.90 in1012.5 mb 0.00 in0.0 mm 0.00 in0.0 mm 0.00 in0.0 mm
04:55 AM 61.5°F16.4°C 60.1°F15.6°C 95% 2.2 mph WSW3.5 kmh WSW 5.3 mph8.5 kmh 29.90 in1012.5 mb 0.00 in0.0 mm 0.00 in0.0 mm 0.00 in0.0 mm
04:54 AM 61.5°F16.4°C 60.1°F15.6°C 95% Calm Calm 5.3 mph8.5 kmh 29.90 in1012.5 mb 0.00 in0.0 mm 0.00 in0.0 mm 0.00 in0.0 mm
04:53 AM 61.5°F16.4°C 60.1°F15.6°C 95% 1.7 mph WNW2.7 kmh WNW 5.3 mph8.5 kmh 29.90 in1012.5 mb 0.00 in0.0 mm 0.00 in0.0 mm 0.00 in0.0 mm
04:52 AM 61.5°F16.4°C 60.1°F15.6°C 95% 1.7 mph WSW2.7 kmh WSW 5.3 mph8.5 kmh 29.90 in1012.5 mb 0.00 in0.0 mm 0.00 in0.0 mm 0.00 in0.0 mm
04:51 AM 61.5°F16.4°C 60.1°F15.6°C 95% 1.7 mph S2.7 kmh S 5.3 mph8.5 kmh 29.90 in1012.5 mb 0.00 in0.0 mm 0.00 in0.0 mm 0.00 in0.0 mm
04:50 AM 61.5°F16.4°C 60.1°F15.6°C 95% 3.2 mph NW5.1 kmh NW 5.3 mph8.5 kmh 29.90 in1012.5 mb 0.00 in0.0 mm 0.00 in0.0 mm 0.00 in0.0 mm
04:49 AM 61.5°F16.4°C 60.1°F15.6°C 95% 2.2 mph E3.5 kmh E 5.3 mph8.5 kmh 29.90 in1012.5 mb 0.00 in0.0 mm 0.00 in0.0 mm 0.00 in0.0 mm
04:48 AM 61.5°F16.4°C 60.1°F15.6°C 95% 3.2 mph W5.1 kmh W 4.2 mph6.8 kmh 29.90 in1012.5 mb 0.00 in0.0 mm 0.00 in0.0 mm 0.00 in0.0 mm
04:47 AM 61.5°F16.4°C 60.1°F15.6°C 95% 2.2 mph SE3.5 kmh SE 4.2 mph6.8 kmh 29.90 in1012.5 mb 0.00 in0.0 mm 0.00 in0.0 mm 0.00 in0.0 mm
04:46 AM 61.5°F16.4°C 60.1°F15.6°C 95% 2.2 mph WSW3.5 kmh WSW 4.2 mph6.8 kmh 29.90 in1012.5 mb 0.00 in0.0 mm 0.00 in0.0 mm 0.00 in0.0 mm
04:45 AM 61.5°F16.4°C 60.1°F15.6°C 95% 2.2 mph W3.5 kmh W 4.2 mph6.8 kmh 29.90 in1012.5 mb 0.00 in0.0 mm 0.00 in0.0 mm 0.00 in0.0 mm
04:44 AM 61.5°F16.4°C 60.1°F15.6°C 95% 3.7 mph SW6.0 kmh SW 4.2 mph6.8 kmh 29.90 in1012.5 mb 0.00 in0.0 mm 0.00 in0.0 mm 0.00 in0.0 mm
04:43 AM 61.5°F16.4°C 60.1°F15.6°C 95% 2.7 mph W4.3 kmh W 4.2 mph6.8 kmh 29.90 in1012.5 mb 0.00 in0.0 mm 0.00 in0.0 mm 0.00 in0.0 mm
04:42 AM 61.5°F16.4°C 60.1°F15.6°C 95% 3.2 mph W5.1 kmh W 4.2 mph6.8 kmh 29.90 in1012.5 mb 0.00 in0.0 mm 0.00 in0.0 mm 0.00 in0.0 mm
04:41 AM 61.5°F16.4°C 59.8°F15.4°C 94% 2.2 mph W3.5 kmh W 4.2 mph6.8 kmh 29.90 in1012.5 mb 0.00 in0.0 mm 0.00 in0.0 mm 0.00 in0.0 mm
04:40 AM 61.5°F16.4°C 59.8°F15.4°C 94% 1.7 mph W2.7 kmh W 4.2 mph6.8 kmh 29.90 in1012.5 mb 0.00 in0.0 mm 0.00 in0.0 mm 0.00 in0.0 mm
04:39 AM 61.5°F16.4°C 59.8°F15.4°C 94% 4.2 mph W6.8 kmh W 4.2 mph6.8 kmh 29.90 in1012.5 mb 0.00 in0.0 mm 0.00 in0.0 mm 0.00 in0.0 mm
04:38 AM 61.5°F16.4°C 59.8°F15.4°C 94% 2.7 mph ESE4.3 kmh ESE 4.2 mph6.8 kmh 29.90 in1012.5 mb 0.00 in0.0 mm 0.00 in0.0 mm 0.00 in0.0 mm
04:37 AM 61.5°F16.4°C 59.8°F15.4°C 94% 3.2 mph ESE5.1 kmh ESE 4.2 mph6.8 kmh 29.90 in1012.5 mb 0.00 in0.0 mm 0.00 in0.0 mm 0.00 in0.0 mm
04:36 AM 61.5°F16.4°C 59.8°F15.4°C 94% 3.2 mph W5.1 kmh W 4.7 mph7.6 kmh 29.90 in1012.5 mb 0.00 in0.0 mm 0.00 in0.0 mm 0.00 in0.0 mm
04:35 AM 61.5°F16.4°C 59.8°F15.4°C 94% 2.7 mph W4.3 kmh W 4.7 mph7.6 kmh 29.90 in1012.5 mb 0.00 in0.0 mm 0.00 in0.0 mm 0.00 in0.0 mm
04:34 AM 61.5°F16.4°C 59.8°F15.4°C 94% 1.1 mph W1.8 kmh W 4.7 mph7.6 kmh 29.90 in1012.5 mb 0.00 in0.0 mm 0.00 in0.0 mm 0.00 in0.0 mm
04:33 AM 61.5°F16.4°C 59.8°F15.4°C 94% 2.2 mph W3.5 kmh W 4.7 mph7.6 kmh 29.90 in1012.5 mb 0.00 in0.0 mm 0.00 in0.0 mm 0.00 in0.0 mm
04:32 AM 61.5°F16.4°C 59.8°F15.4°C 94% 3.7 mph SW6.0 kmh SW 4.7 mph7.6 kmh 29.90 in1012.5 mb 0.00 in0.0 mm 0.00 in0.0 mm 0.00 in0.0 mm
04:31 AM 61.5°F16.4°C 59.8°F15.4°C 94% 4.2 mph WSW6.8 kmh WSW 4.7 mph7.6 kmh 29.90 in1012.5 mb 0.00 in0.0 mm 0.00 in0.0 mm 0.00 in0.0 mm
04:30 AM 61.5°F16.4°C 59.8°F15.4°C 94% 1.7 mph WSW2.7 kmh WSW 4.7 mph7.6 kmh 29.90 in1012.5 mb 0.00 in0.0 mm 0.00 in0.0 mm 0.00 in0.0 mm
04:29 AM 61.5°F16.4°C 59.8°F15.4°C 94% 1.1 mph S1.8 kmh S 4.7 mph7.6 kmh 29.89 in1012.2 mb 0.00 in0.0 mm 0.00 in0.0 mm 0.00 in0.0 mm
04:28 AM 61.5°F16.4°C 59.8°F15.4°C 94% 2.7 mph W4.3 kmh W 4.7 mph7.6 kmh 29.89 in1012.2 mb 0.00 in0.0 mm 0.00 in0.0 mm 0.00 in0.0 mm
04:27 AM 61.5°F16.4°C 59.8°F15.4°C 94% 4.2 mph W6.8 kmh W 4.7 mph7.6 kmh 29.89 in1012.2 mb 0.00 in0.0 mm 0.00 in0.0 mm 0.00 in0.0 mm
04:26 AM 61.5°F16.4°C 59.8°F15.4°C 94% 4.7 mph W7.6 kmh W 4.7 mph7.6 kmh 29.89 in1012.2 mb 0.00 in0.0 mm 0.00 in0.0 mm 0.00 in0.0 mm
04:25 AM 61.5°F16.4°C 59.8°F15.4°C 94% 2.2 mph W3.5 kmh W 4.2 mph6.8 kmh 29.89 in1012.2 mb 0.00 in0.0 mm 0.00 in0.0 mm 0.00 in0.0 mm
04:24 AM 61.7°F16.5°C 60.0°F15.6°C 94% 4.2 mph SW6.8 kmh SW 4.2 mph6.8 kmh 29.89 in1012.2 mb 0.00 in0.0 mm 0.00 in0.0 mm 0.00 in0.0 mm
04:23 AM 61.7°F16.5°C 60.0°F15.6°C 94% 1.7 mph SE2.7 kmh SE 3.7 mph6.0 kmh 29.89 in1012.2 mb 0.00 in0.0 mm 0.00 in0.0 mm 0.00 in0.0 mm
04:22 AM 61.7°F16.5°C 60.0°F15.6°C 94% 3.2 mph W5.1 kmh W 3.7 mph6.0 kmh 29.89 in1012.2 mb 0.00 in0.0 mm 0.00 in0.0 mm 0.00 in0.0 mm
04:21 AM 61.7°F16.5°C 60.0°F15.6°C 94% 2.2 mph SSW3.5 kmh SSW 3.7 mph6.0 kmh 29.89 in1012.2 mb 0.00 in0.0 mm 0.00 in0.0 mm 0.00 in0.0 mm
04:20 AM 61.7°F16.5°C 60.0°F15.6°C 94% 1.1 mph NW1.8 kmh NW 4.2 mph6.8 kmh 29.89 in1012.2 mb 0.00 in0.0 mm 0.00 in0.0 mm 0.00 in0.0 mm
04:19 AM 61.7°F16.5°C 60.0°F15.6°C 94% 1.7 mph SSW2.7 kmh SSW 4.2 mph6.8 kmh 29.89 in1012.2 mb 0.00 in0.0 mm 0.00 in0.0 mm 0.00 in0.0 mm
04:18 AM 61.7°F16.5°C 60.0°F15.6°C 94% 3.2 mph W5.1 kmh W 4.2 mph6.8 kmh 29.89 in1012.2 mb 0.00 in0.0 mm 0.00 in0.0 mm 0.00 in0.0 mm
04:17 AM 61.7°F16.5°C 60.0°F15.6°C 94% 2.7 mph WSW4.3 kmh WSW 4.2 mph6.8 kmh 29.89 in1012.2 mb 0.00 in0.0 mm 0.00 in0.0 mm 0.00 in0.0 mm
04:16 AM 61.7°F16.5°C 60.0°F15.6°C 94% 2.2 mph SW3.5 kmh SW 4.2 mph6.8 kmh 29.90 in1012.5 mb 0.00 in0.0 mm 0.00 in0.0 mm 0.00 in0.0 mm
04:15 AM 61.7°F16.5°C 60.0°F15.6°C 94% 2.2 mph ESE3.5 kmh ESE 4.2 mph6.8 kmh 29.90 in1012.5 mb 0.00 in0.0 mm 0.00 in0.0 mm 0.00 in0.0 mm
04:14 AM 61.7°F16.5°C 60.0°F15.6°C 94% 2.7 mph W4.3 kmh W 4.2 mph6.8 kmh 29.90 in1012.5 mb 0.00 in0.0 mm 0.00 in0.0 mm 0.00 in0.0 mm
04:13 AM 61.7°F16.5°C 60.0°F15.6°C 94% 2.2 mph W3.5 kmh W 4.2 mph6.8 kmh 29.90 in1012.5 mb 0.00 in0.0 mm 0.00 in0.0 mm 0.00 in0.0 mm
04:12 AM 61.7°F16.5°C 60.0°F15.6°C 94% 2.7 mph W4.3 kmh W 4.2 mph6.8 kmh 29.90 in1012.5 mb 0.00 in0.0 mm 0.00 in0.0 mm 0.00 in0.0 mm
04:11 AM 61.7°F16.5°C 60.0°F15.6°C 94% 2.7 mph W4.3 kmh W 4.2 mph6.8 kmh 29.90 in1012.5 mb 0.00 in0.0 mm 0.00 in0.0 mm 0.00 in0.0 mm
04:10 AM 61.7°F16.5°C 60.0°F15.6°C 94% 4.2 mph W6.8 kmh W 4.2 mph6.8 kmh 29.90 in1012.5 mb 0.00 in0.0 mm 0.00 in0.0 mm 0.00 in0.0 mm
04:09 AM 61.7°F16.5°C 60.0°F15.6°C 94% 3.2 mph ESE5.1 kmh ESE 4.7 mph7.6 kmh 29.90 in1012.5 mb 0.00 in0.0 mm 0.00 in0.0 mm 0.00 in0.0 mm
04:08 AM 61.7°F16.5°C 60.0°F15.6°C 94% 2.7 mph W4.3 kmh W 4.7 mph7.6 kmh 29.90 in1012.5 mb 0.00 in0.0 mm 0.00 in0.0 mm 0.00 in0.0 mm
04:07 AM 61.7°F16.5°C 60.0°F15.6°C 94% 2.2 mph WNW3.5 kmh WNW 4.7 mph7.6 kmh 29.90 in1012.5 mb 0.00 in0.0 mm 0.00 in0.0 mm 0.00 in0.0 mm
04:06 AM 61.7°F16.5°C 60.0°F15.6°C 94% 1.7 mph WNW2.7 kmh WNW 4.7 mph7.6 kmh 29.90 in1012.5 mb 0.00 in0.0 mm 0.00 in0.0 mm 0.00 in0.0 mm
04:05 AM 61.7°F16.5°C 60.0°F15.6°C 94% 1.7 mph E2.7 kmh E 4.7 mph7.6 kmh 29.91 in1012.9 mb 0.00 in0.0 mm 0.00 in0.0 mm 0.00 in0.0 mm
04:04 AM 61.7°F16.5°C 60.0°F15.6°C 94% 1.7 mph SE2.7 kmh SE 4.7 mph7.6 kmh 29.91 in1012.9 mb 0.00 in0.0 mm 0.00 in0.0 mm 0.00 in0.0 mm
04:03 AM 61.7°F16.5°C 60.0°F15.6°C 94% 4.2 mph WSW6.8 kmh WSW 4.7 mph7.6 kmh 29.91 in1012.9 mb 0.00 in0.0 mm 0.00 in0.0 mm 0.00 in0.0 mm
04:02 AM 61.7°F16.5°C 60.0°F15.6°C 94% 1.1 mph WSW1.8 kmh WSW 4.7 mph7.6 kmh 29.91 in1012.9 mb 0.00 in0.0 mm 0.00 in0.0 mm 0.00 in0.0 mm
04:01 AM 61.7°F16.5°C 60.0°F15.6°C 94% 2.7 mph WSW4.3 kmh WSW 4.7 mph7.6 kmh 29.91 in1012.9 mb 0.00 in0.0 mm 0.00 in0.0 mm 0.00 in0.0 mm
04:00 AM 61.7°F16.5°C 60.0°F15.6°C 94% 2.2 mph WSW3.5 kmh WSW 4.7 mph7.6 kmh 29.91 in1012.9 mb 0.00 in0.0 mm 0.00 in0.0 mm 0.00 in0.0 mm
03:59 AM 61.9°F16.6°C 60.2°F15.7°C 94% 2.2 mph W3.5 kmh W 3.7 mph6.0 kmh 29.91 in1012.9 mb 0.00 in0.0 mm 0.00 in0.0 mm 0.00 in0.0 mm
03:58 AM 61.9°F16.6°C 60.2°F15.7°C 94% 1.7 mph SE2.7 kmh SE 3.7 mph6.0 kmh 29.91 in1012.9 mb 0.00 in0.0 mm 0.00 in0.0 mm 0.00 in0.0 mm
03:57 AM 61.9°F16.6°C 60.2°F15.7°C 94% 1.7 mph ESE2.7 kmh ESE 3.7 mph6.0 kmh 29.91 in1012.9 mb 0.00 in0.0 mm 0.00 in0.0 mm 0.00 in0.0 mm
03:56 AM 61.9°F16.6°C 60.2°F15.7°C 94% 1.1 mph W1.8 kmh W 3.2 mph5.1 kmh 29.91 in1012.9 mb 0.00 in0.0 mm 0.00 in0.0 mm 0.00 in0.0 mm
03:55 AM 61.9°F16.6°C 60.2°F15.7°C 94% 2.2 mph E3.5 kmh E 3.7 mph6.0 kmh 29.91 in1012.9 mb 0.00 in0.0 mm 0.00 in0.0 mm 0.00 in0.0 mm
03:54 AM 61.9°F16.6°C 60.2°F15.7°C 94% 1.1 mph NNE1.8 kmh NNE 3.7 mph6.0 kmh 29.91 in1012.9 mb 0.00 in0.0 mm 0.00 in0.0 mm 0.00 in0.0 mm
03:53 AM 61.9°F16.6°C 60.2°F15.7°C 94% 2.7 mph S4.3 kmh S 3.7 mph6.0 kmh 29.91 in1012.9 mb 0.00 in0.0 mm 0.00 in0.0 mm 0.00 in0.0 mm
03:52 AM 61.9°F16.6°C 60.2°F15.7°C 94% 1.7 mph E2.7 kmh E 3.7 mph6.0 kmh 29.90 in1012.5 mb 0.00 in0.0 mm 0.00 in0.0 mm 0.00 in0.0 mm
03:51 AM 61.9°F16.6°C 60.2°F15.7°C 94% 2.7 mph W4.3 kmh W 3.7 mph6.0 kmh 29.90 in1012.5 mb 0.00 in0.0 mm 0.00 in0.0 mm 0.00 in0.0 mm
03:50 AM 61.9°F16.6°C 60.2°F15.7°C 94% 2.7 mph W4.3 kmh W 3.7 mph6.0 kmh 29.90 in1012.5 mb 0.00 in0.0 mm 0.00 in0.0 mm 0.00 in0.0 mm
03:49 AM 61.9°F16.6°C 60.2°F15.7°C 94% 1.7 mph W2.7 kmh W 4.2 mph6.8 kmh 29.90 in1012.5 mb 0.00 in0.0 mm 0.00 in0.0 mm 0.00 in0.0 mm
03:48 AM 61.9°F16.6°C 60.2°F15.7°C 94% 2.2 mph ESE3.5 kmh ESE 4.2 mph6.8 kmh 29.90 in1012.5 mb 0.00 in0.0 mm 0.00 in0.0 mm 0.00 in0.0 mm
03:47 AM 61.9°F16.6°C 60.2°F15.7°C 94% 1.7 mph NE2.7 kmh NE 4.2 mph6.8 kmh 29.90 in1012.5 mb 0.00 in0.0 mm 0.00 in0.0 mm 0.00 in0.0 mm
03:46 AM 61.9°F16.6°C 60.2°F15.7°C 94% 3.2 mph W5.1 kmh W 4.2 mph6.8 kmh 29.90 in1012.5 mb 0.00 in0.0 mm 0.00 in0.0 mm 0.00 in0.0 mm
03:45 AM 61.9°F16.6°C 60.2°F15.7°C 94% 1.7 mph ESE2.7 kmh ESE 4.2 mph6.8 kmh 29.90 in1012.5 mb 0.00 in0.0 mm 0.00 in0.0 mm 0.00 in0.0 mm
03:44 AM 61.9°F16.6°C 60.2°F15.7°C 94% 3.2 mph S5.1 kmh S 4.2 mph6.8 kmh 29.90 in1012.5 mb 0.00 in0.0 mm 0.00 in0.0 mm 0.00 in0.0 mm
03:43 AM 61.9°F16.6°C 60.2°F15.7°C 94% 3.7 mph W6.0 kmh W 4.2 mph6.8 kmh 29.90 in1012.5 mb 0.00 in0.0 mm 0.00 in0.0 mm 0.00 in0.0 mm
03:42 AM 61.9°F16.6°C 60.2°F15.7°C 94% 2.2 mph W3.5 kmh W 4.2 mph6.8 kmh 29.90 in1012.5 mb 0.00 in0.0 mm 0.00 in0.0 mm 0.00 in0.0 mm
03:41 AM 61.9°F16.6°C 60.2°F15.7°C 94% 3.2 mph ESE5.1 kmh ESE 4.2 mph6.8 kmh 29.91 in1012.9 mb 0.00 in0.0 mm 0.00 in0.0 mm 0.00 in0.0 mm
03:40 AM 61.9°F16.6°C 60.2°F15.7°C 94% 1.7 mph WSW2.7 kmh WSW 4.2 mph6.8 kmh 29.91 in1012.9 mb 0.00 in0.0 mm 0.00 in0.0 mm 0.00 in0.0 mm
03:39 AM 61.9°F16.6°C 60.2°F15.7°C 94% 3.2 mph W5.1 kmh W 3.7 mph6.0 kmh 29.91 in1012.9 mb 0.00 in0.0 mm 0.00 in0.0 mm 0.00 in0.0 mm
03:38 AM 61.9°F16.6°C 60.2°F15.7°C 94% 2.2 mph WSW3.5 kmh WSW 3.7 mph6.0 kmh 29.91 in1012.9 mb 0.00 in0.0 mm 0.00 in0.0 mm 0.00 in0.0 mm
03:37 AM 61.9°F16.6°C 60.2°F15.7°C 94% 1.7 mph W2.7 kmh W 3.7 mph6.0 kmh 29.91 in1012.9 mb 0.00 in0.0 mm 0.00 in0.0 mm 0.00 in0.0 mm
03:36 AM 61.9°F16.6°C 60.2°F15.7°C 94% 2.2 mph WSW3.5 kmh WSW 3.7 mph6.0 kmh 29.91 in1012.9 mb 0.00 in0.0 mm 0.00 in0.0 mm 0.00 in0.0 mm
03:35 AM 61.9°F16.6°C 60.2°F15.7°C 94% 1.7 mph N2.7 kmh N 3.7 mph6.0 kmh 29.91 in1012.9 mb 0.00 in0.0 mm 0.00 in0.0 mm 0.00 in0.0 mm
03:34 AM 61.9°F16.6°C 60.2°F15.7°C 94% 2.7 mph W4.3 kmh W 3.7 mph6.0 kmh 29.91 in1012.9 mb 0.00 in0.0 mm 0.00 in0.0 mm 0.00 in0.0 mm
03:33 AM 61.9°F16.6°C 60.2°F15.7°C 94% 2.2 mph SSW3.5 kmh SSW 3.7 mph6.0 kmh 29.91 in1012.9 mb 0.00 in0.0 mm 0.00 in0.0 mm 0.00 in0.0 mm
03:32 AM 61.9°F16.6°C 60.2°F15.7°C 94% 1.7 mph ESE2.7 kmh ESE 4.7 mph7.6 kmh 29.91 in1012.9 mb 0.00 in0.0 mm 0.00 in0.0 mm 0.00 in0.0 mm
03:31 AM 61.9°F16.6°C 60.2°F15.7°C 94% 1.7 mph NNW2.7 kmh NNW 4.7 mph7.6 kmh 29.91 in1012.9 mb 0.00 in0.0 mm 0.00 in0.0 mm 0.00 in0.0 mm
03:30 AM 61.9°F16.6°C 60.2°F15.7°C 94% 2.7 mph NNE4.3 kmh NNE 4.7 mph7.6 kmh 29.91 in1012.9 mb 0.00 in0.0 mm 0.00 in0.0 mm 0.00 in0.0 mm
03:29 AM 61.9°F16.6°C 60.2°F15.7°C 94% 3.7 mph W6.0 kmh W 4.7 mph7.6 kmh 29.90 in1012.5 mb 0.00 in0.0 mm 0.00 in0.0 mm 0.00 in0.0 mm
03:28 AM 61.9°F16.6°C 60.2°F15.7°C 94% 3.2 mph NW5.1 kmh NW 4.7 mph7.6 kmh 29.90 in1012.5 mb 0.00 in0.0 mm 0.00 in0.0 mm 0.00 in0.0 mm
03:27 AM 61.9°F16.6°C 60.2°F15.7°C 94% 3.2 mph W5.1 kmh W 4.7 mph7.6 kmh 29.90 in1012.5 mb 0.00 in0.0 mm 0.00 in0.0 mm 0.00 in0.0 mm
03:26 AM 61.9°F16.6°C 60.2°F15.7°C 94% 2.2 mph W3.5 kmh W 4.7 mph7.6 kmh 29.90 in1012.5 mb 0.00 in0.0 mm 0.00 in0.0 mm 0.00 in0.0 mm
03:25 AM 61.9°F16.6°C 60.2°F15.7°C 94% 2.2 mph S3.5 kmh S 4.7 mph7.6 kmh 29.90 in1012.5 mb 0.00 in0.0 mm 0.00 in0.0 mm 0.00 in0.0 mm
03:24 AM 61.9°F16.6°C 60.2°F15.7°C 94% 2.2 mph WSW3.5 kmh WSW 4.7 mph7.6 kmh 29.90 in1012.5 mb 0.00 in0.0 mm 0.00 in0.0 mm 0.00 in0.0 mm
03:23 AM 61.9°F16.6°C 60.2°F15.7°C 94% 3.2 mph W5.1 kmh W 4.7 mph7.6 kmh 29.90 in1012.5 mb 0.00 in0.0 mm 0.00 in0.0 mm 0.00 in0.0 mm
03:22 AM 61.9°F16.6°C 60.2°F15.7°C 94% 2.7 mph W4.3 kmh W 3.7 mph6.0 kmh 29.90 in1012.5 mb 0.00 in0.0 mm 0.00 in0.0 mm 0.00 in0.0 mm
03:21 AM 61.9°F16.6°C 60.2°F15.7°C 94% 3.7 mph S6.0 kmh S 4.2 mph6.8 kmh 29.90 in1012.5 mb 0.00 in0.0 mm 0.00 in0.0 mm 0.00 in0.0 mm
03:20 AM 61.9°F16.6°C 60.2°F15.7°C 94% 2.2 mph SE3.5 kmh SE 4.2 mph6.8 kmh 29.90 in1012.5 mb 0.00 in0.0 mm 0.00 in0.0 mm 0.00 in0.0 mm
03:19 AM 61.9°F16.6°C 60.2°F15.7°C 94% 2.2 mph ESE3.5 kmh ESE 4.2 mph6.8 kmh 29.90 in1012.5 mb 0.00 in0.0 mm 0.00 in0.0 mm 0.00 in0.0 mm
03:18 AM 61.9°F16.6°C 60.2°F15.7°C 94% 2.2 mph WSW3.5 kmh WSW 5.8 mph9.3 kmh 29.90 in1012.5 mb 0.00 in0.0 mm 0.00 in0.0 mm 0.00 in0.0 mm
03:17 AM 61.9°F16.6°C 60.2°F15.7°C 94% 2.2 mph WSW3.5 kmh WSW 5.8 mph9.3 kmh 29.90 in1012.5 mb 0.00 in0.0 mm 0.00 in0.0 mm 0.00 in0.0 mm
03:16 AM 61.9°F16.6°C 60.2°F15.7°C 94% 3.2 mph SW5.1 kmh SW 5.8 mph9.3 kmh 29.90 in1012.5 mb 0.00 in0.0 mm 0.00 in0.0 mm 0.00 in0.0 mm
03:15 AM 61.9°F16.6°C 60.2°F15.7°C 94% 3.7 mph W6.0 kmh W 6.3 mph10.1 kmh 29.90 in1012.5 mb 0.00 in0.0 mm 0.00 in0.0 mm 0.00 in0.0 mm
03:14 AM 61.9°F16.6°C 60.2°F15.7°C 94% 3.7 mph ENE6.0 kmh ENE 6.3 mph10.1 kmh 29.90 in1012.5 mb 0.00 in0.0 mm 0.00 in0.0 mm 0.00 in0.0 mm
03:13 AM 61.9°F16.6°C 60.2°F15.7°C 94% 2.2 mph NNW3.5 kmh NNW 6.3 mph10.1 kmh 29.90 in1012.5 mb 0.00 in0.0 mm 0.00 in0.0 mm 0.00 in0.0 mm
03:12 AM 61.9°F16.6°C 60.2°F15.7°C 94% 2.7 mph WSW4.3 kmh WSW 6.3 mph10.1 kmh 29.90 in1012.5 mb 0.00 in0.0 mm 0.00 in0.0 mm 0.00 in0.0 mm
03:11 AM 61.9°F16.6°C 60.2°F15.7°C 94% 3.7 mph E6.0 kmh E 6.3 mph10.1 kmh 29.90 in1012.5 mb 0.00 in0.0 mm 0.00 in0.0 mm 0.00 in0.0 mm
03:10 AM 61.9°F16.6°C 60.2°F15.7°C 94% 2.7 mph WSW4.3 kmh WSW 6.3 mph10.1 kmh 29.90 in1012.5 mb 0.00 in0.0 mm 0.00 in0.0 mm 0.00 in0.0 mm
03:09 AM 61.9°F16.6°C 60.2°F15.7°C 94% 1.7 mph W2.7 kmh W 6.3 mph10.1 kmh 29.90 in1012.5 mb 0.00 in0.0 mm 0.00 in0.0 mm 0.00 in0.0 mm
03:08 AM 61.9°F16.6°C 60.2°F15.7°C 94% 5.8 mph W9.3 kmh W 6.3 mph10.1 kmh 29.90 in1012.5 mb 0.00 in0.0 mm 0.00 in0.0 mm 0.00 in0.0 mm
03:07 AM 61.9°F16.6°C 60.2°F15.7°C 94% 1.7 mph S2.7 kmh S 6.3 mph10.1 kmh 29.90 in1012.5 mb 0.00 in0.0 mm 0.00 in0.0 mm 0.00 in0.0 mm
03:06 AM 61.9°F16.6°C 60.2°F15.7°C 94% 6.3 mph W10.1 kmh W 6.3 mph10.1 kmh 29.90 in1012.5 mb 0.00 in0.0 mm 0.00 in0.0 mm 0.00 in0.0 mm
03:05 AM 61.9°F16.6°C 60.2°F15.7°C 94% 2.2 mph SW3.5 kmh SW 4.7 mph7.6 kmh 29.90 in1012.5 mb 0.00 in0.0 mm 0.00 in0.0 mm 0.00 in0.0 mm
03:04 AM 61.9°F16.6°C 60.2°F15.7°C 94% 2.7 mph W4.3 kmh W 4.7 mph7.6 kmh 29.90 in1012.5 mb 0.00 in0.0 mm 0.00 in0.0 mm 0.00 in0.0 mm
03:03 AM 61.9°F16.6°C 60.2°F15.7°C 94% 1.7 mph W2.7 kmh W 4.7 mph7.6 kmh 29.90 in1012.5 mb 0.00 in0.0 mm 0.00 in0.0 mm 0.00 in0.0 mm
03:02 AM 61.9°F16.6°C 60.2°F15.7°C 94% 2.7 mph W4.3 kmh W 4.7 mph7.6 kmh 29.90 in1012.5 mb 0.00 in0.0 mm 0.00 in0.0 mm 0.00 in0.0 mm
03:01 AM 61.9°F16.6°C 60.2°F15.7°C 94% 2.7 mph WSW4.3 kmh WSW 4.7 mph7.6 kmh 29.90 in1012.5 mb 0.00 in0.0 mm 0.00 in0.0 mm 0.00 in0.0 mm
03:00 AM 61.9°F16.6°C 60.2°F15.7°C 94% 2.7 mph W4.3 kmh W 4.7 mph7.6 kmh 29.90 in1012.5 mb 0.00 in0.0 mm 0.00 in0.0 mm 0.00 in0.0 mm
02:59 AM 61.9°F16.6°C 60.2°F15.7°C 94% 4.2 mph W6.8 kmh W 4.7 mph7.6 kmh 29.90 in1012.5 mb 0.00 in0.0 mm 0.00 in0.0 mm 0.00 in0.0 mm
02:58 AM 61.9°F16.6°C 60.2°F15.7°C 94% 2.2 mph WSW3.5 kmh WSW 4.7 mph7.6 kmh 29.90 in1012.5 mb 0.00 in0.0 mm 0.00 in0.0 mm 0.00 in0.0 mm
02:57 AM 61.9°F16.6°C 60.2°F15.7°C 94% 3.7 mph WSW6.0 kmh WSW 4.7 mph7.6 kmh 29.90 in1012.5 mb 0.00 in0.0 mm 0.00 in0.0 mm 0.00 in0.0 mm
02:56 AM 61.9°F16.6°C 60.2°F15.7°C 94% 3.2 mph W5.1 kmh W 4.7 mph7.6 kmh 29.90 in1012.5 mb 0.00 in0.0 mm 0.00 in0.0 mm 0.00 in0.0 mm
02:55 AM 61.9°F16.6°C 60.2°F15.7°C 94% 3.7 mph E6.0 kmh E 4.7 mph7.6 kmh 29.90 in1012.5 mb 0.00 in0.0 mm 0.00 in0.0 mm 0.00 in0.0 mm
02:54 AM 61.9°F16.6°C 60.2°F15.7°C 94% 3.7 mph W6.0 kmh W 4.7 mph7.6 kmh 29.90 in1012.5 mb 0.00 in0.0 mm 0.00 in0.0 mm 0.00 in0.0 mm
02:53 AM 61.9°F16.6°C 60.2°F15.7°C 94% 2.7 mph WSW4.3 kmh WSW 4.7 mph7.6 kmh 29.90 in1012.5 mb 0.00 in0.0 mm 0.00 in0.0 mm 0.00 in0.0 mm
02:52 AM 61.9°F16.6°C 60.2°F15.7°C 94% 3.2 mph W5.1 kmh W 4.7 mph7.6 kmh 29.91 in1012.9 mb 0.00 in0.0 mm 0.00 in0.0 mm 0.00 in0.0 mm
02:51 AM 61.9°F16.6°C 60.2°F15.7°C 94% 2.7 mph W4.3 kmh W 4.7 mph7.6 kmh 29.91 in1012.9 mb 0.00 in0.0 mm 0.00 in0.0 mm 0.00 in0.0 mm
02:50 AM 61.9°F16.6°C 60.2°F15.7°C 94% 1.1 mph W1.8 kmh W 4.7 mph7.6 kmh 29.91 in1012.9 mb 0.00 in0.0 mm 0.00 in0.0 mm 0.00 in0.0 mm
02:49 AM 61.9°F16.6°C 60.2°F15.7°C 94% 2.2 mph WSW3.5 kmh WSW 4.7 mph7.6 kmh 29.91 in1012.9 mb 0.00 in0.0 mm 0.00 in0.0 mm 0.00 in0.0 mm
02:48 AM 61.9°F16.6°C 60.2°F15.7°C 94% 3.7 mph WSW6.0 kmh WSW 4.7 mph7.6 kmh 29.91 in1012.9 mb 0.00 in0.0 mm 0.00 in0.0 mm 0.00 in0.0 mm
02:47 AM 61.9°F16.6°C 60.2°F15.7°C 94% 2.2 mph WSW3.5 kmh WSW 4.7 mph7.6 kmh 29.91 in1012.9 mb 0.00 in0.0 mm 0.00 in0.0 mm 0.00 in0.0 mm
02:46 AM 61.9°F16.6°C 60.2°F15.7°C 94% 3.7 mph SW6.0 kmh SW 4.7 mph7.6 kmh 29.91 in1012.9 mb 0.00 in0.0 mm 0.00 in0.0 mm 0.00 in0.0 mm
02:45 AM 61.9°F16.6°C 60.2°F15.7°C 94% 2.7 mph W4.3 kmh W 4.7 mph7.6 kmh 29.91 in1012.9 mb 0.00 in0.0 mm 0.00 in0.0 mm 0.00 in0.0 mm
02:44 AM 61.9°F16.6°C 60.2°F15.7°C 94% 3.2 mph W5.1 kmh W 4.7 mph7.6 kmh 29.91 in1012.9 mb 0.00 in0.0 mm 0.00 in0.0 mm 0.00 in0.0 mm
02:43 AM 61.9°F16.6°C 60.2°F15.7°C 94% 3.2 mph W5.1 kmh W 4.7 mph7.6 kmh 29.91 in1012.9 mb 0.00 in0.0 mm 0.00 in0.0 mm 0.00 in0.0 mm
02:42 AM 61.9°F16.6°C 60.2°F15.7°C 94% 2.7 mph N4.3 kmh N 4.7 mph7.6 kmh 29.91 in1012.9 mb 0.00 in0.0 mm 0.00 in0.0 mm 0.00 in0.0 mm
02:41 AM 61.9°F16.6°C 60.2°F15.7°C 94% 4.7 mph W7.6 kmh W 4.7 mph7.6 kmh 29.91 in1012.9 mb 0.00 in0.0 mm 0.00 in0.0 mm 0.00 in0.0 mm
02:40 AM 61.9°F16.6°C 60.2°F15.7°C 94% 2.7 mph WSW4.3 kmh WSW 3.7 mph6.0 kmh 29.91 in1012.9 mb 0.00 in0.0 mm 0.00 in0.0 mm 0.00 in0.0 mm
02:39 AM 61.9°F16.6°C 60.2°F15.7°C 94% 2.7 mph W4.3 kmh W 3.7 mph6.0 kmh 29.91 in1012.9 mb 0.00 in0.0 mm 0.00 in0.0 mm 0.00 in0.0 mm
02:38 AM 61.9°F16.6°C 60.2°F15.7°C 94% 1.7 mph ESE2.7 kmh ESE 3.7 mph6.0 kmh 29.91 in1012.9 mb 0.00 in0.0 mm 0.00 in0.0 mm 0.00 in0.0 mm
02:37 AM 61.9°F16.6°C 60.2°F15.7°C 94% 1.7 mph W2.7 kmh W 3.7 mph6.0 kmh 29.91 in1012.9 mb 0.00 in0.0 mm 0.00 in0.0 mm 0.00 in0.0 mm
02:36 AM 61.9°F16.6°C 60.2°F15.7°C 94% 2.2 mph W3.5 kmh W 3.7 mph6.0 kmh 29.91 in1012.9 mb 0.00 in0.0 mm 0.00 in0.0 mm 0.00 in0.0 mm
02:35 AM 61.9°F16.6°C 60.2°F15.7°C 94% 1.7 mph W2.7 kmh W 3.7 mph6.0 kmh 29.91 in1012.9 mb 0.00 in0.0 mm 0.00 in0.0 mm 0.00 in0.0 mm
02:34 AM 61.9°F16.6°C 60.2°F15.7°C 94% Calm Calm 4.7 mph7.6 kmh 29.91 in1012.9 mb 0.00 in0.0 mm 0.00 in0.0 mm 0.00 in0.0 mm
02:33 AM 61.9°F16.6°C 60.2°F15.7°C 94% 1.7 mph W2.7 kmh W 4.7 mph7.6 kmh 29.91 in1012.9 mb 0.00 in0.0 mm 0.00 in0.0 mm 0.00 in0.0 mm
02:32 AM 61.9°F16.6°C 60.2°F15.7°C 94% 1.7 mph W2.7 kmh W 4.7 mph7.6 kmh 29.91 in1012.9 mb 0.00 in0.0 mm 0.00 in0.0 mm 0.00 in0.0 mm
02:31 AM 61.9°F16.6°C 60.2°F15.7°C 94% 3.2 mph ESE5.1 kmh ESE 4.7 mph7.6 kmh 29.91 in1012.9 mb 0.00 in0.0 mm 0.00 in0.0 mm 0.00 in0.0 mm
02:30 AM 61.9°F16.6°C 60.2°F15.7°C 94% 2.7 mph SW4.3 kmh SW 4.7 mph7.6 kmh 29.91 in1012.9 mb 0.00 in0.0 mm 0.00 in0.0 mm 0.00 in0.0 mm
02:29 AM 61.9°F16.6°C 60.2°F15.7°C 94% 3.7 mph NW6.0 kmh NW 4.7 mph7.6 kmh 29.91 in1012.9 mb 0.00 in0.0 mm 0.00 in0.0 mm 0.00 in0.0 mm
02:28 AM 61.9°F16.6°C 60.2°F15.7°C 94% 2.2 mph WSW3.5 kmh WSW 4.7 mph7.6 kmh 29.90 in1012.5 mb 0.00 in0.0 mm 0.00 in0.0 mm 0.00 in0.0 mm
02:27 AM 61.9°F16.6°C 60.2°F15.7°C 94% 2.7 mph WSW4.3 kmh WSW 4.7 mph7.6 kmh 29.90 in1012.5 mb 0.00 in0.0 mm 0.00 in0.0 mm 0.00 in0.0 mm
02:26 AM 61.9°F16.6°C 60.2°F15.7°C 94% 2.2 mph W3.5 kmh W 4.7 mph7.6 kmh 29.90 in1012.5 mb 0.00 in0.0 mm 0.00 in0.0 mm 0.00 in0.0 mm
02:25 AM 61.9°F16.6°C 60.2°F15.7°C 94% 3.2 mph W5.1 kmh W 4.7 mph7.6 kmh 29.90 in1012.5 mb 0.00 in0.0 mm 0.00 in0.0 mm 0.00 in0.0 mm
02:24 AM 61.9°F16.6°C 60.2°F15.7°C 94% 4.7 mph W7.6 kmh W 5.8 mph9.3 kmh 29.90 in1012.5 mb 0.00 in0.0 mm 0.00 in0.0 mm 0.00 in0.0 mm
02:23 AM 61.9°F16.6°C 60.2°F15.7°C 94% 3.2 mph WSW5.1 kmh WSW 5.8 mph9.3 kmh 29.90 in1012.5 mb 0.00 in0.0 mm 0.00 in0.0 mm 0.00 in0.0 mm
02:22 AM 61.9°F16.6°C 60.2°F15.7°C 94% 3.2 mph W5.1 kmh W 5.8 mph9.3 kmh 29.90 in1012.5 mb 0.00 in0.0 mm 0.00 in0.0 mm 0.00 in0.0 mm
02:21 AM 61.9°F16.6°C 60.2°F15.7°C 94% 4.7 mph W7.6 kmh W 5.8 mph9.3 kmh 29.90 in1012.5 mb 0.00 in0.0 mm 0.00 in0.0 mm 0.00 in0.0 mm
02:20 AM 61.9°F16.6°C 60.2°F15.7°C 94% 2.2 mph ESE3.5 kmh ESE 5.8 mph9.3 kmh 29.90 in1012.5 mb 0.00 in0.0 mm 0.00 in0.0 mm 0.00 in0.0 mm
02:19 AM 61.9°F16.6°C 60.2°F15.7°C 94% 2.7 mph NE4.3 kmh NE 5.8 mph9.3 kmh 29.90 in1012.5 mb 0.00 in0.0 mm 0.00 in0.0 mm 0.00 in0.0 mm
02:18 AM 61.9°F16.6°C 60.2°F15.7°C 94% 2.7 mph WSW4.3 kmh WSW 5.8 mph9.3 kmh 29.90 in1012.5 mb 0.00 in0.0 mm 0.00 in0.0 mm 0.00 in0.0 mm
02:17 AM 62.1°F16.7°C 60.4°F15.8°C 94% 1.7 mph ESE2.7 kmh ESE 5.8 mph9.3 kmh 29.90 in1012.5 mb 0.00 in0.0 mm 0.00 in0.0 mm 0.00 in0.0 mm
02:16 AM 62.1°F16.7°C 60.4°F15.8°C 94% 1.7 mph SW2.7 kmh SW 5.8 mph9.3 kmh 29.90 in1012.5 mb 0.00 in0.0 mm 0.00 in0.0 mm 0.00 in0.0 mm
02:15 AM 62.1°F16.7°C 60.4°F15.8°C 94% 2.7 mph W4.3 kmh W 5.8 mph9.3 kmh 29.90 in1012.5 mb 0.00 in0.0 mm 0.00 in0.0 mm 0.00 in0.0 mm
02:14 AM 62.1°F16.7°C 60.4°F15.8°C 94% 2.2 mph WNW3.5 kmh WNW 5.8 mph9.3 kmh 29.90 in1012.5 mb 0.00 in0.0 mm 0.00 in0.0 mm 0.00 in0.0 mm
02:13 AM 62.1°F16.7°C 60.4°F15.8°C 94% 4.2 mph W6.8 kmh W 5.8 mph9.3 kmh 29.90 in1012.5 mb 0.00 in0.0 mm 0.00 in0.0 mm 0.00 in0.0 mm
02:12 AM 62.1°F16.7°C 60.4°F15.8°C 94% 2.2 mph W3.5 kmh W 5.8 mph9.3 kmh 29.90 in1012.5 mb 0.00 in0.0 mm 0.00 in0.0 mm 0.00 in0.0 mm
02:11 AM 62.1°F16.7°C 60.4°F15.8°C 94% 4.7 mph W7.6 kmh W 5.8 mph9.3 kmh 29.90 in1012.5 mb 0.00 in0.0 mm 0.00 in0.0 mm 0.00 in0.0 mm
02:10 AM 62.1°F16.7°C 60.4°F15.8°C 94% 3.2 mph W5.1 kmh W 5.8 mph9.3 kmh 29.90 in1012.5 mb 0.00 in0.0 mm 0.00 in0.0 mm 0.00 in0.0 mm
02:09 AM 62.1°F16.7°C 60.4°F15.8°C 94% 2.7 mph SW4.3 kmh SW 5.8 mph9.3 kmh 29.90 in1012.5 mb 0.00 in0.0 mm 0.00 in0.0 mm 0.00 in0.0 mm
02:08 AM 62.1°F16.7°C 60.4°F15.8°C 94% 5.3 mph W8.5 kmh W 5.8 mph9.3 kmh 29.90 in1012.5 mb 0.00 in0.0 mm 0.00 in0.0 mm 0.00 in0.0 mm
02:07 AM 62.1°F16.7°C 60.4°F15.8°C 94% 1.7 mph WNW2.7 kmh WNW 5.8 mph9.3 kmh 29.90 in1012.5 mb 0.00 in0.0 mm 0.00 in0.0 mm 0.00 in0.0 mm
02:06 AM 62.1°F16.7°C 60.4°F15.8°C 94% 5.8 mph WSW9.3 kmh WSW 5.8 mph9.3 kmh 29.90 in1012.5 mb 0.00 in0.0 mm 0.00 in0.0 mm 0.00 in0.0 mm
02:05 AM 62.1°F16.7°C 60.4°F15.8°C 94% 2.2 mph E3.5 kmh E 5.8 mph9.3 kmh 29.90 in1012.5 mb 0.00 in0.0 mm 0.00 in0.0 mm 0.00 in0.0 mm
02:04 AM 62.1°F16.7°C 60.4°F15.8°C 94% 3.2 mph W5.1 kmh W 5.8 mph9.3 kmh 29.90 in1012.5 mb 0.00 in0.0 mm 0.00 in0.0 mm 0.00 in0.0 mm
02:03 AM 62.1°F16.7°C 60.4°F15.8°C 94% 3.2 mph W5.1 kmh W 5.8 mph9.3 kmh 29.90 in1012.5 mb 0.00 in0.0 mm 0.00 in0.0 mm 0.00 in0.0 mm
02:02 AM 62.1°F16.7°C 60.4°F15.8°C 94% 2.7 mph ESE4.3 kmh ESE 5.8 mph9.3 kmh 29.90 in1012.5 mb 0.00 in0.0 mm 0.00 in0.0 mm 0.00 in0.0 mm
02:01 AM 62.1°F16.7°C 60.4°F15.8°C 94% 3.2 mph W5.1 kmh W 5.8 mph9.3 kmh 29.90 in1012.5 mb 0.00 in0.0 mm 0.00 in0.0 mm 0.00 in0.0 mm
02:00 AM 62.1°F16.7°C 60.4°F15.8°C 94% 2.2 mph SSE3.5 kmh SSE 5.8 mph9.3 kmh 29.90 in1012.5 mb 0.00 in0.0 mm 0.00 in0.0 mm 0.00 in0.0 mm
01:59 AM 62.1°F16.7°C 60.4°F15.8°C 94% 2.7 mph W4.3 kmh W 5.8 mph9.3 kmh 29.90 in1012.5 mb 0.00 in0.0 mm 0.00 in0.0 mm 0.00 in0.0 mm
01:58 AM 62.1°F16.7°C 60.4°F15.8°C 94% 3.2 mph WSW5.1 kmh WSW 5.8 mph9.3 kmh 29.90 in1012.5 mb 0.00 in0.0 mm 0.00 in0.0 mm 0.00 in0.0 mm
01:57 AM 62.1°F16.7°C 60.4°F15.8°C 94% 3.2 mph WSW5.1 kmh WSW 5.8 mph9.3 kmh 29.90 in1012.5 mb 0.00 in0.0 mm 0.00 in0.0 mm 0.00 in0.0 mm
01:56 AM 62.1°F16.7°C 60.4°F15.8°C 94% 2.7 mph W4.3 kmh W 4.7 mph7.6 kmh 29.90 in1012.5 mb 0.00 in0.0 mm 0.00 in0.0 mm 0.00 in0.0 mm
01:55 AM 62.1°F16.7°C 60.4°F15.8°C 94% 2.2 mph W3.5 kmh W 4.7 mph7.6 kmh 29.90 in1012.5 mb 0.00 in0.0 mm 0.00 in0.0 mm 0.00 in0.0 mm
01:54 AM 62.1°F16.7°C 60.4°F15.8°C 94% 3.2 mph ESE5.1 kmh ESE 4.7 mph7.6 kmh 29.90 in1012.5 mb 0.00 in0.0 mm 0.00 in0.0 mm 0.00 in0.0 mm
01:53 AM 62.1°F16.7°C 60.4°F15.8°C 94% 2.2 mph WSW3.5 kmh WSW 4.7 mph7.6 kmh 29.90 in1012.5 mb 0.00 in0.0 mm 0.00 in0.0 mm 0.00 in0.0 mm
01:52 AM 62.1°F16.7°C 60.4°F15.8°C 94% 2.7 mph W4.3 kmh W 4.7 mph7.6 kmh 29.90 in1012.5 mb 0.00 in0.0 mm 0.00 in0.0 mm 0.00 in0.0 mm
01:51 AM 62.1°F16.7°C 60.4°F15.8°C 94% 3.2 mph W5.1 kmh W 4.7 mph7.6 kmh 29.90 in1012.5 mb 0.00 in0.0 mm 0.00 in0.0 mm 0.00 in0.0 mm
01:50 AM 62.1°F16.7°C 60.4°F15.8°C 94% 2.7 mph SW4.3 kmh SW 4.7 mph7.6 kmh 29.90 in1012.5 mb 0.00 in0.0 mm 0.00 in0.0 mm 0.00 in0.0 mm
01:49 AM 62.1°F16.7°C 60.4°F15.8°C 94% 1.1 mph ESE1.8 kmh ESE 4.7 mph7.6 kmh 29.90 in1012.5 mb 0.00 in0.0 mm 0.00 in0.0 mm 0.00 in0.0 mm
01:48 AM 62.1°F16.7°C 60.4°F15.8°C 94% 2.7 mph W4.3 kmh W 4.7 mph7.6 kmh 29.90 in1012.5 mb 0.00 in0.0 mm 0.00 in0.0 mm 0.00 in0.0 mm
01:47 AM 62.1°F16.7°C 60.4°F15.8°C 94% 3.2 mph W5.1 kmh W 4.7 mph7.6 kmh 29.90 in1012.5 mb 0.00 in0.0 mm 0.00 in0.0 mm 0.00 in0.0 mm
01:46 AM 62.1°F16.7°C 60.4°F15.8°C 94% 3.2 mph W5.1 kmh W 4.7 mph7.6 kmh 29.90 in1012.5 mb 0.00 in0.0 mm 0.00 in0.0 mm 0.00 in0.0 mm
01:45 AM 62.1°F16.7°C 60.4°F15.8°C 94% 2.2 mph W3.5 kmh W 4.7 mph7.6 kmh 29.90 in1012.5 mb 0.00 in0.0 mm 0.00 in0.0 mm 0.00 in0.0 mm
01:44 AM 62.1°F16.7°C 60.4°F15.8°C 94% 4.2 mph W6.8 kmh W 4.7 mph7.6 kmh 29.90 in1012.5 mb 0.00 in0.0 mm 0.00 in0.0 mm 0.00 in0.0 mm
01:43 AM 62.1°F16.7°C 60.4°F15.8°C 94% 3.2 mph ESE5.1 kmh ESE 4.7 mph7.6 kmh 29.90 in1012.5 mb 0.00 in0.0 mm 0.00 in0.0 mm 0.00 in0.0 mm
01:42 AM 62.1°F16.7°C 60.0°F15.6°C 93% 4.7 mph W7.6 kmh W 4.7 mph7.6 kmh 29.90 in1012.5 mb 0.00 in0.0 mm 0.00 in0.0 mm 0.00 in0.0 mm
01:41 AM 62.1°F16.7°C 60.0°F15.6°C 93% 3.7 mph NNE6.0 kmh NNE 5.8 mph9.3 kmh 29.90 in1012.5 mb 0.00 in0.0 mm 0.00 in0.0 mm 0.00 in0.0 mm
01:40 AM 62.1°F16.7°C 60.0°F15.6°C 93% 3.2 mph WNW5.1 kmh WNW 5.8 mph9.3 kmh 29.90 in1012.5 mb 0.00 in0.0 mm 0.00 in0.0 mm 0.00 in0.0 mm
01:39 AM 62.1°F16.7°C 60.0°F15.6°C 93% 4.7 mph W7.6 kmh W 5.8 mph9.3 kmh 29.90 in1012.5 mb 0.00 in0.0 mm 0.00 in0.0 mm 0.00 in0.0 mm
01:38 AM 62.1°F16.7°C 60.0°F15.6°C 93% 4.2 mph WSW6.8 kmh WSW 5.8 mph9.3 kmh 29.90 in1012.5 mb 0.00 in0.0 mm 0.00 in0.0 mm 0.00 in0.0 mm
01:37 AM 62.1°F16.7°C 60.0°F15.6°C 93% 2.2 mph W3.5 kmh W 5.8 mph9.3 kmh 29.90 in1012.5 mb 0.00 in0.0 mm 0.00 in0.0 mm 0.00 in0.0 mm
01:36 AM 62.1°F16.7°C 60.0°F15.6°C 93% 2.2 mph SW3.5 kmh SW 5.8 mph9.3 kmh 29.90 in1012.5 mb 0.00 in0.0 mm 0.00 in0.0 mm 0.00 in0.0 mm
01:35 AM 62.1°F16.7°C 60.0°F15.6°C 93% 2.2 mph N3.5 kmh N 5.8 mph9.3 kmh 29.90 in1012.5 mb 0.00 in0.0 mm 0.00 in0.0 mm 0.00 in0.0 mm
01:34 AM 62.1°F16.7°C 60.0°F15.6°C 93% 2.2 mph SW3.5 kmh SW 5.8 mph9.3 kmh 29.90 in1012.5 mb 0.00 in0.0 mm 0.00 in0.0 mm 0.00 in0.0 mm
01:33 AM 62.1°F16.7°C 60.0°F15.6°C 93% 2.7 mph ESE4.3 kmh ESE 5.8 mph9.3 kmh 29.90 in1012.5 mb 0.00 in0.0 mm 0.00 in0.0 mm 0.00 in0.0 mm
01:32 AM 62.1°F16.7°C 60.0°F15.6°C 93% 2.2 mph W3.5 kmh W 5.8 mph9.3 kmh 29.90 in1012.5 mb 0.00 in0.0 mm 0.00 in0.0 mm 0.00 in0.0 mm
01:31 AM 62.1°F16.7°C 60.0°F15.6°C 93% 5.8 mph WNW9.3 kmh WNW 5.8 mph9.3 kmh 29.90 in1012.5 mb 0.00 in0.0 mm 0.00 in0.0 mm 0.00 in0.0 mm
01:30 AM 62.1°F16.7°C 60.0°F15.6°C 93% 4.7 mph NNE7.6 kmh NNE 5.3 mph8.5 kmh 29.90 in1012.5 mb 0.00 in0.0 mm 0.00 in0.0 mm 0.00 in0.0 mm
01:29 AM 62.1°F16.7°C 60.0°F15.6°C 93% 3.7 mph W6.0 kmh W 5.3 mph8.5 kmh 29.90 in1012.5 mb 0.00 in0.0 mm 0.00 in0.0 mm 0.00 in0.0 mm
01:28 AM 62.1°F16.7°C 60.0°F15.6°C 93% 2.2 mph WSW3.5 kmh WSW 5.3 mph8.5 kmh 29.91 in1012.9 mb 0.00 in0.0 mm 0.00 in0.0 mm 0.00 in0.0 mm
01:27 AM 62.1°F16.7°C 60.0°F15.6°C 93% 5.3 mph SW8.5 kmh SW 5.3 mph8.5 kmh 29.91 in1012.9 mb 0.00 in0.0 mm 0.00 in0.0 mm 0.00 in0.0 mm
01:26 AM 62.1°F16.7°C 60.0°F15.6°C 93% 4.2 mph W6.8 kmh W 5.3 mph8.5 kmh 29.91 in1012.9 mb 0.00 in0.0 mm 0.00 in0.0 mm 0.00 in0.0 mm
01:25 AM 62.1°F16.7°C 60.0°F15.6°C 93% 5.3 mph N8.5 kmh N 5.3 mph8.5 kmh 29.91 in1012.9 mb 0.00 in0.0 mm 0.00 in0.0 mm 0.00 in0.0 mm
01:24 AM 62.1°F16.7°C 60.0°F15.6°C 93% 2.7 mph W4.3 kmh W 5.3 mph8.5 kmh 29.91 in1012.9 mb 0.00 in0.0 mm 0.00 in0.0 mm 0.00 in0.0 mm
01:23 AM 62.1°F16.7°C 60.0°F15.6°C 93% 3.2 mph W5.1 kmh W 5.3 mph8.5 kmh 29.91 in1012.9 mb 0.00 in0.0 mm 0.00 in0.0 mm 0.00 in0.0 mm
01:22 AM 62.1°F16.7°C 60.0°F15.6°C 93% 2.7 mph W4.3 kmh W 5.3 mph8.5 kmh 29.91 in1012.9 mb 0.00 in0.0 mm 0.00 in0.0 mm 0.00 in0.0 mm
01:21 AM 62.1°F16.7°C 60.0°F15.6°C 93% 3.2 mph SSW5.1 kmh SSW 5.3 mph8.5 kmh 29.91 in1012.9 mb 0.00 in0.0 mm 0.00 in0.0 mm 0.00 in0.0 mm
01:20 AM 62.1°F16.7°C 60.0°F15.6°C 93% 3.7 mph SW6.0 kmh SW 6.8 mph10.9 kmh 29.91 in1012.9 mb 0.00 in0.0 mm 0.00 in0.0 mm 0.00 in0.0 mm
01:19 AM 62.1°F16.7°C 60.0°F15.6°C 93% 1.7 mph S2.7 kmh S 6.8 mph10.9 kmh 29.91 in1012.9 mb 0.00 in0.0 mm 0.00 in0.0 mm 0.00 in0.0 mm
01:18 AM 62.1°F16.7°C 60.0°F15.6°C 93% 3.2 mph W5.1 kmh W 6.8 mph10.9 kmh 29.91 in1012.9 mb 0.00 in0.0 mm 0.00 in0.0 mm 0.00 in0.0 mm
01:17 AM 62.1°F16.7°C 60.0°F15.6°C 93% 2.2 mph W3.5 kmh W 6.8 mph10.9 kmh 29.91 in1012.9 mb 0.00 in0.0 mm 0.00 in0.0 mm 0.00 in0.0 mm
01:16 AM 62.1°F16.7°C 60.0°F15.6°C 93% 2.7 mph W4.3 kmh W 6.8 mph10.9 kmh 29.91 in1012.9 mb 0.00 in0.0 mm 0.00 in0.0 mm 0.00 in0.0 mm
01:15 AM 62.1°F16.7°C 60.0°F15.6°C 93% 3.2 mph W5.1 kmh W 6.8 mph10.9 kmh 29.91 in1012.9 mb 0.00 in0.0 mm 0.00 in0.0 mm 0.00 in0.0 mm
01:14 AM 62.1°F16.7°C 60.0°F15.6°C 93% 2.7 mph SSW4.3 kmh SSW 6.8 mph10.9 kmh 29.91 in1012.9 mb 0.00 in0.0 mm 0.00 in0.0 mm 0.00 in0.0 mm
01:13 AM 62.1°F16.7°C 60.0°F15.6°C 93% 4.7 mph W7.6 kmh W 6.8 mph10.9 kmh 29.91 in1012.9 mb 0.00 in0.0 mm 0.00 in0.0 mm 0.00 in0.0 mm
01:12 AM 62.1°F16.7°C 60.0°F15.6°C 93% 4.2 mph ENE6.8 kmh ENE 6.8 mph10.9 kmh 29.91 in1012.9 mb 0.00 in0.0 mm 0.00 in0.0 mm 0.00 in0.0 mm
01:11 AM 62.1°F16.7°C 60.0°F15.6°C 93% 2.2 mph ESE3.5 kmh ESE 6.8 mph10.9 kmh 29.91 in1012.9 mb 0.00 in0.0 mm 0.00 in0.0 mm 0.00 in0.0 mm
01:10 AM 62.1°F16.7°C 60.0°F15.6°C 93% 3.7 mph NE6.0 kmh NE 6.3 mph10.1 kmh 29.91 in1012.9 mb 0.00 in0.0 mm 0.00 in0.0 mm 0.00 in0.0 mm
01:09 AM 62.1°F16.7°C 60.0°F15.6°C 93% 1.7 mph NNE2.7 kmh NNE 6.3 mph10.1 kmh 29.91 in1012.9 mb 0.00 in0.0 mm 0.00 in0.0 mm 0.00 in0.0 mm
01:08 AM 62.1°F16.7°C 60.0°F15.6°C 93% 2.2 mph W3.5 kmh W 6.3 mph10.1 kmh 29.91 in1012.9 mb 0.00 in0.0 mm 0.00 in0.0 mm 0.00 in0.0 mm
01:07 AM 62.1°F16.7°C 60.0°F15.6°C 93% 2.2 mph WNW3.5 kmh WNW 4.7 mph7.6 kmh 29.91 in1012.9 mb 0.00 in0.0 mm 0.00 in0.0 mm 0.00 in0.0 mm
01:06 AM 62.1°F16.7°C 60.0°F15.6°C 93% 2.2 mph W3.5 kmh W 4.7 mph7.6 kmh 29.91 in1012.9 mb 0.00 in0.0 mm 0.00 in0.0 mm 0.00 in0.0 mm
01:05 AM 62.1°F16.7°C 60.0°F15.6°C 93% 3.2 mph WSW5.1 kmh WSW 4.7 mph7.6 kmh 29.91 in1012.9 mb 0.00 in0.0 mm 0.00 in0.0 mm 0.00 in0.0 mm
01:04 AM 62.1°F16.7°C 59.7°F15.4°C 92% 4.7 mph W7.6 kmh W 4.7 mph7.6 kmh 29.90 in1012.5 mb 0.00 in0.0 mm 0.00 in0.0 mm 0.00 in0.0 mm
01:03 AM 62.1°F16.7°C 59.7°F15.4°C 92% 2.2 mph S3.5 kmh S 4.2 mph6.8 kmh 29.90 in1012.5 mb 0.00 in0.0 mm 0.00 in0.0 mm 0.00 in0.0 mm
01:02 AM 62.1°F16.7°C 59.7°F15.4°C 92% 2.2 mph WSW3.5 kmh WSW 4.2 mph6.8 kmh 29.90 in1012.5 mb 0.00 in0.0 mm 0.00 in0.0 mm 0.00 in0.0 mm
01:01 AM 62.1°F16.7°C 59.7°F15.4°C 92% 2.2 mph SSW3.5 kmh SSW 5.3 mph8.5 kmh 29.90 in1012.5 mb 0.00 in0.0 mm 0.00 in0.0 mm 0.00 in0.0 mm
01:00 AM 62.1°F16.7°C 59.7°F15.4°C 92% 3.7 mph W6.0 kmh W 5.3 mph8.5 kmh 29.90 in1012.5 mb 0.00 in0.0 mm 0.00 in0.0 mm 0.00 in0.0 mm
12:59 AM 62.1°F16.7°C 59.7°F15.4°C 92% 2.2 mph S3.5 kmh S 5.3 mph8.5 kmh 29.90 in1012.5 mb 0.00 in0.0 mm 0.00 in0.0 mm 0.00 in0.0 mm
12:58 AM 62.2°F16.8°C 59.8°F15.4°C 92% 1.7 mph ENE2.7 kmh ENE 5.3 mph8.5 kmh 29.90 in1012.5 mb 0.00 in0.0 mm 0.00 in0.0 mm 0.00 in0.0 mm
12:57 AM 62.2°F16.8°C 59.8°F15.4°C 92% 2.7 mph S4.3 kmh S 5.3 mph8.5 kmh 29.90 in1012.5 mb 0.00 in0.0 mm 0.00 in0.0 mm 0.00 in0.0 mm
12:56 AM 62.2°F16.8°C 59.8°F15.4°C 92% 2.2 mph WNW3.5 kmh WNW 5.3 mph8.5 kmh 29.90 in1012.5 mb 0.00 in0.0 mm 0.00 in0.0 mm 0.00 in0.0 mm
12:55 AM 62.2°F16.8°C 59.8°F15.4°C 92% 2.2 mph NNE3.5 kmh NNE 5.3 mph8.5 kmh 29.90 in1012.5 mb 0.00 in0.0 mm 0.00 in0.0 mm 0.00 in0.0 mm
12:54 AM 62.2°F16.8°C 59.8°F15.4°C 92% 2.2 mph WSW3.5 kmh WSW 5.3 mph8.5 kmh 29.90 in1012.5 mb 0.00 in0.0 mm 0.00 in0.0 mm 0.00 in0.0 mm
12:53 AM 62.2°F16.8°C 59.8°F15.4°C 92% 2.7 mph NW4.3 kmh NW 5.3 mph8.5 kmh 29.90 in1012.5 mb 0.00 in0.0 mm 0.00 in0.0 mm 0.00 in0.0 mm
12:52 AM 62.2°F16.8°C 59.8°F15.4°C 92% 3.2 mph SSW5.1 kmh SSW 5.3 mph8.5 kmh 29.90 in1012.5 mb 0.00 in0.0 mm 0.00 in0.0 mm 0.00 in0.0 mm
12:51 AM 62.2°F16.8°C 59.8°F15.4°C 92% 2.2 mph W3.5 kmh W 6.3 mph10.1 kmh 29.90 in1012.5 mb 0.00 in0.0 mm 0.00 in0.0 mm 0.00 in0.0 mm
12:50 AM 62.2°F16.8°C 59.8°F15.4°C 92% 3.7 mph WSW6.0 kmh WSW 7.8 mph12.6 kmh 29.90 in1012.5 mb 0.00 in0.0 mm 0.00 in0.0 mm 0.00 in0.0 mm
12:49 AM 62.2°F16.8°C 59.8°F15.4°C 92% 3.7 mph W6.0 kmh W 7.8 mph12.6 kmh 29.90 in1012.5 mb 0.00 in0.0 mm 0.00 in0.0 mm 0.00 in0.0 mm
12:48 AM 62.2°F16.8°C 59.8°F15.4°C 92% 2.7 mph N4.3 kmh N 7.8 mph12.6 kmh 29.90 in1012.5 mb 0.00 in0.0 mm 0.00 in0.0 mm 0.00 in0.0 mm
12:47 AM 62.2°F16.8°C 59.8°F15.4°C 92% 2.2 mph WSW3.5 kmh WSW 7.8 mph12.6 kmh 29.90 in1012.5 mb 0.00 in0.0 mm 0.00 in0.0 mm 0.00 in0.0 mm
12:46 AM 62.2°F16.8°C 59.8°F15.4°C 92% 2.7 mph W4.3 kmh W 7.8 mph12.6 kmh 29.90 in1012.5 mb 0.00 in0.0 mm 0.00 in0.0 mm 0.00 in0.0 mm
12:45 AM 62.2°F16.8°C 59.8°F15.4°C 92% 2.7 mph N4.3 kmh N 7.8 mph12.6 kmh 29.90 in1012.5 mb 0.00 in0.0 mm 0.00 in0.0 mm 0.00 in0.0 mm
12:44 AM 62.2°F16.8°C 59.8°F15.4°C 92% 4.2 mph W6.8 kmh W 7.8 mph12.6 kmh 29.90 in1012.5 mb 0.00 in0.0 mm 0.00 in0.0 mm 0.00 in0.0 mm
12:43 AM 62.2°F16.8°C 59.8°F15.4°C 92% 1.7 mph S2.7 kmh S 7.8 mph12.6 kmh 29.90 in1012.5 mb 0.00 in0.0 mm 0.00 in0.0 mm 0.00 in0.0 mm
12:42 AM 62.2°F16.8°C 59.8°F15.4°C 92% 4.2 mph W6.8 kmh W 7.8 mph12.6 kmh 29.90 in1012.5 mb 0.00 in0.0 mm 0.00 in0.0 mm 0.00 in0.0 mm
12:41 AM 62.2°F16.8°C 59.8°F15.4°C 92% 3.2 mph W5.1 kmh W 7.8 mph12.6 kmh 29.91 in1012.9 mb 0.00 in0.0 mm 0.00 in0.0 mm 0.00 in0.0 mm
12:40 AM 62.2°F16.8°C 59.8°F15.4°C 92% 3.7 mph W6.0 kmh W 5.8 mph9.3 kmh 29.91 in1012.9 mb 0.00 in0.0 mm 0.00 in0.0 mm 0.00 in0.0 mm
12:39 AM 62.2°F16.8°C 59.8°F15.4°C 92% 5.3 mph W8.5 kmh W 5.8 mph9.3 kmh 29.91 in1012.9 mb 0.00 in0.0 mm 0.00 in0.0 mm 0.00 in0.0 mm
12:38 AM 62.2°F16.8°C 59.8°F15.4°C 92% 3.2 mph SW5.1 kmh SW 5.8 mph9.3 kmh 29.91 in1012.9 mb 0.00 in0.0 mm 0.00 in0.0 mm 0.00 in0.0 mm
12:37 AM 62.2°F16.8°C 59.8°F15.4°C 92% 2.2 mph SW3.5 kmh SW 5.8 mph9.3 kmh 29.91 in1012.9 mb 0.00 in0.0 mm 0.00 in0.0 mm 0.00 in0.0 mm
12:36 AM 62.2°F16.8°C 59.8°F15.4°C 92% 4.2 mph NNW6.8 kmh NNW 5.8 mph9.3 kmh 29.91 in1012.9 mb 0.00 in0.0 mm 0.00 in0.0 mm 0.00 in0.0 mm
12:35 AM 62.2°F16.8°C 59.8°F15.4°C 92% 2.7 mph SW4.3 kmh SW 5.8 mph9.3 kmh 29.91 in1012.9 mb 0.00 in0.0 mm 0.00 in0.0 mm 0.00 in0.0 mm
12:34 AM 62.4°F16.9°C 60.0°F15.6°C 92% 2.2 mph W3.5 kmh W 5.8 mph9.3 kmh 29.91 in1012.9 mb 0.00 in0.0 mm 0.00 in0.0 mm 0.00 in0.0 mm
12:33 AM 62.4°F16.9°C 60.0°F15.6°C 92% 2.2 mph NNE3.5 kmh NNE 5.8 mph9.3 kmh 29.91 in1012.9 mb 0.00 in0.0 mm 0.00 in0.0 mm 0.00 in0.0 mm
12:32 AM 62.4°F16.9°C 59.7°F15.4°C 91% 2.7 mph W4.3 kmh W 5.8 mph9.3 kmh 29.91 in1012.9 mb 0.00 in0.0 mm 0.00 in0.0 mm 0.00 in0.0 mm
12:31 AM 62.4°F16.9°C 59.7°F15.4°C 91% 3.7 mph SE6.0 kmh SE 5.8 mph9.3 kmh 29.91 in1012.9 mb 0.00 in0.0 mm 0.00 in0.0 mm 0.00 in0.0 mm
12:30 AM 62.4°F16.9°C 59.7°F15.4°C 91% 1.1 mph NW1.8 kmh NW 5.8 mph9.3 kmh 29.91 in1012.9 mb 0.00 in0.0 mm 0.00 in0.0 mm 0.00 in0.0 mm
12:29 AM 62.4°F16.9°C 59.7°F15.4°C 91% 1.7 mph W2.7 kmh W 5.3 mph8.5 kmh 29.91 in1012.9 mb 0.00 in0.0 mm 0.00 in0.0 mm 0.00 in0.0 mm
12:28 AM 62.4°F16.9°C 59.7°F15.4°C 91% 2.7 mph SSW4.3 kmh SSW 4.7 mph7.6 kmh 29.91 in1012.9 mb 0.00 in0.0 mm 0.00 in0.0 mm 0.00 in0.0 mm
12:27 AM 62.4°F16.9°C 59.7°F15.4°C 91% 1.7 mph SW2.7 kmh SW 4.7 mph7.6 kmh 29.91 in1012.9 mb 0.00 in0.0 mm 0.00 in0.0 mm 0.00 in0.0 mm
12:26 AM 62.4°F16.9°C 59.7°F15.4°C 91% 2.2 mph NW3.5 kmh NW 4.7 mph7.6 kmh 29.91 in1012.9 mb 0.00 in0.0 mm 0.00 in0.0 mm 0.00 in0.0 mm
12:25 AM 62.4°F16.9°C 59.7°F15.4°C 91% 1.1 mph ENE1.8 kmh ENE 4.7 mph7.6 kmh 29.91 in1012.9 mb 0.00 in0.0 mm 0.00 in0.0 mm 0.00 in0.0 mm
12:24 AM 62.4°F16.9°C 59.7°F15.4°C 91% 2.2 mph NNW3.5 kmh NNW 4.7 mph7.6 kmh 29.91 in1012.9 mb 0.00 in0.0 mm 0.00 in0.0 mm 0.00 in0.0 mm
12:23 AM 62.4°F16.9°C 59.7°F15.4°C 91% 3.7 mph W6.0 kmh W 4.2 mph6.8 kmh 29.91 in1012.9 mb 0.00 in0.0 mm 0.00 in0.0 mm 0.00 in0.0 mm
12:22 AM 62.4°F16.9°C 59.7°F15.4°C 91% 2.7 mph S4.3 kmh S 4.2 mph6.8 kmh 29.91 in1012.9 mb 0.00 in0.0 mm 0.00 in0.0 mm 0.00 in0.0 mm
12:21 AM 62.4°F16.9°C 59.7°F15.4°C 91% 3.2 mph W5.1 kmh W 4.2 mph6.8 kmh 29.91 in1012.9 mb 0.00 in0.0 mm 0.00 in0.0 mm 0.00 in0.0 mm
12:20 AM 62.4°F16.9°C 59.7°F15.4°C 91% 2.7 mph ESE4.3 kmh ESE 4.2 mph6.8 kmh 29.91 in1012.9 mb 0.00 in0.0 mm 0.00 in0.0 mm 0.00 in0.0 mm
12:19 AM 62.4°F16.9°C 59.7°F15.4°C 91% 1.7 mph NW2.7 kmh NW 4.2 mph6.8 kmh 29.91 in1012.9 mb 0.00 in0.0 mm 0.00 in0.0 mm 0.00 in0.0 mm
12:18 AM 62.4°F16.9°C 59.7°F15.4°C 91% 4.2 mph ESE6.8 kmh ESE 4.2 mph6.8 kmh 29.91 in1012.9 mb 0.00 in0.0 mm 0.00 in0.0 mm 0.00 in0.0 mm
12:17 AM 62.4°F16.9°C 59.7°F15.4°C 91% 2.7 mph NE4.3 kmh NE 3.7 mph6.0 kmh 29.91 in1012.9 mb 0.00 in0.0 mm 0.00 in0.0 mm 0.00 in0.0 mm
12:16 AM 62.4°F16.9°C 59.7°F15.4°C 91% 2.2 mph N3.5 kmh N 5.3 mph8.5 kmh 29.91 in1012.9 mb 0.00 in0.0 mm 0.00 in0.0 mm 0.00 in0.0 mm
12:15 AM 62.4°F16.9°C 59.7°F15.4°C 91% 3.7 mph SW6.0 kmh SW 5.3 mph8.5 kmh 29.91 in1012.9 mb 0.00 in0.0 mm 0.00 in0.0 mm 0.00 in0.0 mm
12:14 AM 62.4°F16.9°C 59.7°F15.4°C 91% 2.7 mph SW4.3 kmh SW 5.3 mph8.5 kmh 29.91 in1012.9 mb 0.00 in0.0 mm 0.00 in0.0 mm 0.00 in0.0 mm
12:13 AM 62.4°F16.9°C 59.7°F15.4°C 91% 3.2 mph WNW5.1 kmh WNW 5.3 mph8.5 kmh 29.91 in1012.9 mb 0.00 in0.0 mm 0.00 in0.0 mm 0.00 in0.0 mm
12:12 AM 62.4°F16.9°C 59.7°F15.4°C 91% 3.2 mph ESE5.1 kmh ESE 5.3 mph8.5 kmh 29.91 in1012.9 mb 0.00 in0.0 mm 0.00 in0.0 mm 0.00 in0.0 mm
12:11 AM 62.6°F17.0°C 59.9°F15.5°C 91% 1.1 mph NE1.8 kmh NE 5.3 mph8.5 kmh 29.91 in1012.9 mb 0.00 in0.0 mm 0.00 in0.0 mm 0.00 in0.0 mm
12:10 AM 62.6°F17.0°C 59.9°F15.5°C 91% 3.2 mph S5.1 kmh S 5.3 mph8.5 kmh 29.91 in1012.9 mb 0.00 in0.0 mm 0.00 in0.0 mm 0.00 in0.0 mm
12:09 AM 62.6°F17.0°C 59.9°F15.5°C 91% 3.7 mph WNW6.0 kmh WNW 5.3 mph8.5 kmh 29.91 in1012.9 mb 0.00 in0.0 mm 0.00 in0.0 mm 0.00 in0.0 mm
12:08 AM 62.6°F17.0°C 59.9°F15.5°C 91% 3.7 mph W6.0 kmh W 5.3 mph8.5 kmh 29.91 in1012.9 mb 0.00 in0.0 mm 0.00 in0.0 mm 0.00 in0.0 mm
12:07 AM 62.6°F17.0°C 59.9°F15.5°C 91% 4.2 mph S6.8 kmh S 5.3 mph8.5 kmh 29.91 in1012.9 mb 0.00 in0.0 mm 0.00 in0.0 mm 0.00 in0.0 mm
12:06 AM 62.6°F17.0°C 59.9°F15.5°C 91% 5.3 mph W8.5 kmh W 5.3 mph8.5 kmh 29.91 in1012.9 mb 0.00 in0.0 mm 0.00 in0.0 mm 0.00 in0.0 mm
12:05 AM 62.6°F17.0°C 59.9°F15.5°C 91% 2.2 mph W3.5 kmh W 5.3 mph8.5 kmh 29.91 in1012.9 mb 0.00 in0.0 mm 0.00 in0.0 mm 0.00 in0.0 mm
12:04 AM 62.6°F17.0°C 59.9°F15.5°C 91% 2.2 mph SSW3.5 kmh SSW 5.3 mph8.5 kmh 29.92 in1013.2 mb 0.00 in0.0 mm 0.00 in0.0 mm 0.00 in0.0 mm
12:03 AM 62.6°F17.0°C 59.9°F15.5°C 91% 4.2 mph W6.8 kmh W 5.3 mph8.5 kmh 29.92 in1013.2 mb 0.00 in0.0 mm 0.00 in0.0 mm 0.00 in0.0 mm
12:02 AM 62.6°F17.0°C 59.9°F15.5°C 91% 4.2 mph WNW6.8 kmh WNW 5.3 mph8.5 kmh 29.92 in1013.2 mb 0.00 in0.0 mm 0.00 in0.0 mm 0.00 in0.0 mm
12:01 AM 62.6°F17.0°C 59.9°F15.5°C 91% 2.2 mph WSW3.5 kmh WSW 5.3 mph8.5 kmh 29.92 in1013.2 mb 0.00 in0.0 mm 0.00 in0.0 mm 0.00 in0.0 mm
12:00 AM 62.6°F17.0°C 59.9°F15.5°C 91% 3.2 mph WNW5.1 kmh WNW 4.7 mph7.6 kmh 29.92 in1013.2 mb 0.00 in0.0 mm 0.00 in0.0 mm 0.00 in0.0 mm